<?xml version="1.0" encoding="UTF-8" standalone="no" ?>
<gpx xmlns="http://www.topografix.com/GPX/1/1" xmlns:xsi="http://www.w3.org/2001/XMLSchema-instance" xsi:schemaLocation="http://www.topografix.com/GPX/1/1 http://www.topografix.com/GPX/1/1/gpx.xsd" version="1.1" creator="VisuGPX - https://www.visugpx.com">
  <metadata>
    <name>2019-11-17 Moussoulens </name>
  </metadata>
  <trk>
    <name><![CDATA[2019-11-17 Moussoulens avec, Monique,rosy,Michel, PatrickR, Jacques,françois,jean Marc  et jean Francois]]></name>
    <trkseg>
      <trkpt lat="43.27946" lon="2.23228">
        <ele>172.17</ele>
        <time>2019-11-17T07:16:43Z</time>
      </trkpt>
      <trkpt lat="43.27955" lon="2.23254">
        <ele>172.54</ele>
        <time>2019-11-17T07:16:57Z</time>
      </trkpt>
      <trkpt lat="43.27967" lon="2.23277">
        <ele>173.2</ele>
        <time>2019-11-17T07:17:09Z</time>
      </trkpt>
      <trkpt lat="43.27977" lon="2.23302">
        <ele>174.62</ele>
        <time>2019-11-17T07:17:20Z</time>
      </trkpt>
      <trkpt lat="43.27978" lon="2.23332">
        <ele>175.58</ele>
        <time>2019-11-17T07:17:31Z</time>
      </trkpt>
      <trkpt lat="43.27977" lon="2.23358">
        <ele>175.71</ele>
        <time>2019-11-17T07:17:41Z</time>
      </trkpt>
      <trkpt lat="43.27971" lon="2.23385">
        <ele>175.76</ele>
        <time>2019-11-17T07:17:51Z</time>
      </trkpt>
      <trkpt lat="43.27966" lon="2.2341">
        <ele>175.95</ele>
        <time>2019-11-17T07:18:01Z</time>
      </trkpt>
      <trkpt lat="43.2796" lon="2.23436">
        <ele>176.02</ele>
        <time>2019-11-17T07:18:11Z</time>
      </trkpt>
      <trkpt lat="43.27956" lon="2.23463">
        <ele>176.33</ele>
        <time>2019-11-17T07:18:21Z</time>
      </trkpt>
      <trkpt lat="43.27954" lon="2.23492">
        <ele>176.75</ele>
        <time>2019-11-17T07:18:31Z</time>
      </trkpt>
      <trkpt lat="43.2795" lon="2.23518">
        <ele>177.03</ele>
        <time>2019-11-17T07:18:40Z</time>
      </trkpt>
      <trkpt lat="43.27949" lon="2.23545">
        <ele>177.51</ele>
        <time>2019-11-17T07:18:49Z</time>
      </trkpt>
      <trkpt lat="43.27949" lon="2.23571">
        <ele>177.88</ele>
        <time>2019-11-17T07:18:59Z</time>
      </trkpt>
      <trkpt lat="43.27953" lon="2.23597">
        <ele>178.24</ele>
        <time>2019-11-17T07:19:08Z</time>
      </trkpt>
      <trkpt lat="43.27958" lon="2.23626">
        <ele>178.86</ele>
        <time>2019-11-17T07:19:18Z</time>
      </trkpt>
      <trkpt lat="43.27962" lon="2.23654">
        <ele>179.34</ele>
        <time>2019-11-17T07:19:27Z</time>
      </trkpt>
      <trkpt lat="43.27965" lon="2.23682">
        <ele>179.53</ele>
        <time>2019-11-17T07:19:36Z</time>
      </trkpt>
      <trkpt lat="43.27968" lon="2.2371">
        <ele>179.79</ele>
        <time>2019-11-17T07:19:45Z</time>
      </trkpt>
      <trkpt lat="43.27972" lon="2.23737">
        <ele>179.65</ele>
        <time>2019-11-17T07:19:54Z</time>
      </trkpt>
      <trkpt lat="43.27975" lon="2.23765">
        <ele>179.76</ele>
        <time>2019-11-17T07:20:03Z</time>
      </trkpt>
      <trkpt lat="43.27978" lon="2.23791">
        <ele>180.37</ele>
        <time>2019-11-17T07:20:12Z</time>
      </trkpt>
      <trkpt lat="43.2798" lon="2.23819">
        <ele>180.47</ele>
        <time>2019-11-17T07:20:21Z</time>
      </trkpt>
      <trkpt lat="43.27981" lon="2.23845">
        <ele>180.34</ele>
        <time>2019-11-17T07:20:30Z</time>
      </trkpt>
      <trkpt lat="43.27982" lon="2.23874">
        <ele>180.18</ele>
        <time>2019-11-17T07:20:38Z</time>
      </trkpt>
      <trkpt lat="43.27986" lon="2.23899">
        <ele>180.1</ele>
        <time>2019-11-17T07:20:46Z</time>
      </trkpt>
      <trkpt lat="43.28002" lon="2.23909">
        <ele>180.17</ele>
        <time>2019-11-17T07:20:54Z</time>
      </trkpt>
      <trkpt lat="43.2802" lon="2.23914">
        <ele>180.43</ele>
        <time>2019-11-17T07:21:02Z</time>
      </trkpt>
      <trkpt lat="43.2804" lon="2.23919">
        <ele>180.98</ele>
        <time>2019-11-17T07:21:10Z</time>
      </trkpt>
      <trkpt lat="43.28058" lon="2.23924">
        <ele>181.5</ele>
        <time>2019-11-17T07:21:18Z</time>
      </trkpt>
      <trkpt lat="43.28073" lon="2.23936">
        <ele>181.83</ele>
        <time>2019-11-17T07:21:27Z</time>
      </trkpt>
      <trkpt lat="43.28075" lon="2.23962">
        <ele>181.38</ele>
        <time>2019-11-17T07:21:35Z</time>
      </trkpt>
      <trkpt lat="43.28076" lon="2.2399">
        <ele>181.02</ele>
        <time>2019-11-17T07:21:43Z</time>
      </trkpt>
      <trkpt lat="43.28077" lon="2.24017">
        <ele>180.49</ele>
        <time>2019-11-17T07:21:51Z</time>
      </trkpt>
      <trkpt lat="43.2808" lon="2.24043">
        <ele>179.76</ele>
        <time>2019-11-17T07:21:59Z</time>
      </trkpt>
      <trkpt lat="43.28086" lon="2.24068">
        <ele>179.38</ele>
        <time>2019-11-17T07:22:07Z</time>
      </trkpt>
      <trkpt lat="43.28093" lon="2.24093">
        <ele>179.13</ele>
        <time>2019-11-17T07:22:15Z</time>
      </trkpt>
      <trkpt lat="43.28101" lon="2.24119">
        <ele>179.04</ele>
        <time>2019-11-17T07:22:24Z</time>
      </trkpt>
      <trkpt lat="43.28112" lon="2.24138">
        <ele>178.81</ele>
        <time>2019-11-17T07:22:33Z</time>
      </trkpt>
      <trkpt lat="43.28124" lon="2.24163">
        <ele>178.5</ele>
        <time>2019-11-17T07:22:42Z</time>
      </trkpt>
      <trkpt lat="43.28128" lon="2.24188">
        <ele>177.87</ele>
        <time>2019-11-17T07:22:50Z</time>
      </trkpt>
      <trkpt lat="43.28125" lon="2.24214">
        <ele>177.56</ele>
        <time>2019-11-17T07:22:58Z</time>
      </trkpt>
      <trkpt lat="43.28126" lon="2.24242">
        <ele>177.15</ele>
        <time>2019-11-17T07:23:06Z</time>
      </trkpt>
      <trkpt lat="43.28127" lon="2.24268">
        <ele>176.37</ele>
        <time>2019-11-17T07:23:14Z</time>
      </trkpt>
      <trkpt lat="43.28128" lon="2.24296">
        <ele>175.79</ele>
        <time>2019-11-17T07:23:23Z</time>
      </trkpt>
      <trkpt lat="43.2813" lon="2.24323">
        <ele>175.19</ele>
        <time>2019-11-17T07:23:31Z</time>
      </trkpt>
      <trkpt lat="43.28133" lon="2.2435">
        <ele>174.59</ele>
        <time>2019-11-17T07:23:39Z</time>
      </trkpt>
      <trkpt lat="43.28137" lon="2.24376">
        <ele>174.33</ele>
        <time>2019-11-17T07:23:47Z</time>
      </trkpt>
      <trkpt lat="43.28137" lon="2.24401">
        <ele>173.98</ele>
        <time>2019-11-17T07:23:55Z</time>
      </trkpt>
      <trkpt lat="43.28138" lon="2.24427">
        <ele>173.32</ele>
        <time>2019-11-17T07:24:03Z</time>
      </trkpt>
      <trkpt lat="43.28141" lon="2.24458">
        <ele>172.49</ele>
        <time>2019-11-17T07:24:11Z</time>
      </trkpt>
      <trkpt lat="43.28137" lon="2.24484">
        <ele>171.14</ele>
        <time>2019-11-17T07:24:20Z</time>
      </trkpt>
      <trkpt lat="43.28139" lon="2.24508">
        <ele>168.41</ele>
        <time>2019-11-17T07:24:54Z</time>
      </trkpt>
      <trkpt lat="43.28152" lon="2.24532">
        <ele>164.55</ele>
        <time>2019-11-17T07:25:07Z</time>
      </trkpt>
      <trkpt lat="43.28169" lon="2.2455">
        <ele>161.97</ele>
        <time>2019-11-17T07:25:16Z</time>
      </trkpt>
      <trkpt lat="43.28187" lon="2.2457">
        <ele>160.51</ele>
        <time>2019-11-17T07:25:24Z</time>
      </trkpt>
      <trkpt lat="43.282" lon="2.24593">
        <ele>159.47</ele>
        <time>2019-11-17T07:25:32Z</time>
      </trkpt>
      <trkpt lat="43.28208" lon="2.24619">
        <ele>159.04</ele>
        <time>2019-11-17T07:25:41Z</time>
      </trkpt>
      <trkpt lat="43.28215" lon="2.24646">
        <ele>159.04</ele>
        <time>2019-11-17T07:25:51Z</time>
      </trkpt>
      <trkpt lat="43.28231" lon="2.24661">
        <ele>159.92</ele>
        <time>2019-11-17T07:26:00Z</time>
      </trkpt>
      <trkpt lat="43.28249" lon="2.24664">
        <ele>160.91</ele>
        <time>2019-11-17T07:26:09Z</time>
      </trkpt>
      <trkpt lat="43.28268" lon="2.24668">
        <ele>161.42</ele>
        <time>2019-11-17T07:26:18Z</time>
      </trkpt>
      <trkpt lat="43.28286" lon="2.24672">
        <ele>162.25</ele>
        <time>2019-11-17T07:26:27Z</time>
      </trkpt>
      <trkpt lat="43.28306" lon="2.24675">
        <ele>163.49</ele>
        <time>2019-11-17T07:26:37Z</time>
      </trkpt>
      <trkpt lat="43.28325" lon="2.24679">
        <ele>164.72</ele>
        <time>2019-11-17T07:26:46Z</time>
      </trkpt>
      <trkpt lat="43.28344" lon="2.24683">
        <ele>165.6</ele>
        <time>2019-11-17T07:26:55Z</time>
      </trkpt>
      <trkpt lat="43.28364" lon="2.24686">
        <ele>166.52</ele>
        <time>2019-11-17T07:27:05Z</time>
      </trkpt>
      <trkpt lat="43.28382" lon="2.24688">
        <ele>167.3</ele>
        <time>2019-11-17T07:27:14Z</time>
      </trkpt>
      <trkpt lat="43.28401" lon="2.24692">
        <ele>168.62</ele>
        <time>2019-11-17T07:27:24Z</time>
      </trkpt>
      <trkpt lat="43.28419" lon="2.24696">
        <ele>169.55</ele>
        <time>2019-11-17T07:27:33Z</time>
      </trkpt>
      <trkpt lat="43.28438" lon="2.247">
        <ele>170.63</ele>
        <time>2019-11-17T07:27:43Z</time>
      </trkpt>
      <trkpt lat="43.28456" lon="2.24703">
        <ele>171.65</ele>
        <time>2019-11-17T07:27:52Z</time>
      </trkpt>
      <trkpt lat="43.28475" lon="2.24695">
        <ele>172</ele>
        <time>2019-11-17T07:28:02Z</time>
      </trkpt>
      <trkpt lat="43.28489" lon="2.24675">
        <ele>171.81</ele>
        <time>2019-11-17T07:28:12Z</time>
      </trkpt>
      <trkpt lat="43.28502" lon="2.24657">
        <ele>172.86</ele>
        <time>2019-11-17T07:28:21Z</time>
      </trkpt>
      <trkpt lat="43.28517" lon="2.24641">
        <ele>173.7</ele>
        <time>2019-11-17T07:28:29Z</time>
      </trkpt>
      <trkpt lat="43.28534" lon="2.24626">
        <ele>174.47</ele>
        <time>2019-11-17T07:28:38Z</time>
      </trkpt>
      <trkpt lat="43.28552" lon="2.24612">
        <ele>175.28</ele>
        <time>2019-11-17T07:28:47Z</time>
      </trkpt>
      <trkpt lat="43.28568" lon="2.24602">
        <ele>176.24</ele>
        <time>2019-11-17T07:28:56Z</time>
      </trkpt>
      <trkpt lat="43.28585" lon="2.24591">
        <ele>177.52</ele>
        <time>2019-11-17T07:29:05Z</time>
      </trkpt>
      <trkpt lat="43.28604" lon="2.24586">
        <ele>178.5</ele>
        <time>2019-11-17T07:29:14Z</time>
      </trkpt>
      <trkpt lat="43.28622" lon="2.24573">
        <ele>179.61</ele>
        <time>2019-11-17T07:29:23Z</time>
      </trkpt>
      <trkpt lat="43.28639" lon="2.2456">
        <ele>180.37</ele>
        <time>2019-11-17T07:29:32Z</time>
      </trkpt>
      <trkpt lat="43.28654" lon="2.24543">
        <ele>181.44</ele>
        <time>2019-11-17T07:29:41Z</time>
      </trkpt>
      <trkpt lat="43.2867" lon="2.24526">
        <ele>182.67</ele>
        <time>2019-11-17T07:29:50Z</time>
      </trkpt>
      <trkpt lat="43.28686" lon="2.24512">
        <ele>183.97</ele>
        <time>2019-11-17T07:30:00Z</time>
      </trkpt>
      <trkpt lat="43.28701" lon="2.24497">
        <ele>185.14</ele>
        <time>2019-11-17T07:30:09Z</time>
      </trkpt>
      <trkpt lat="43.2872" lon="2.24492">
        <ele>186.31</ele>
        <time>2019-11-17T07:30:24Z</time>
      </trkpt>
      <trkpt lat="43.28738" lon="2.24499">
        <ele>185.76</ele>
        <time>2019-11-17T07:30:56Z</time>
      </trkpt>
      <trkpt lat="43.28749" lon="2.24524">
        <ele>184.15</ele>
        <time>2019-11-17T07:31:23Z</time>
      </trkpt>
      <trkpt lat="43.28768" lon="2.24531">
        <ele>185.01</ele>
        <time>2019-11-17T07:31:35Z</time>
      </trkpt>
      <trkpt lat="43.28786" lon="2.24523">
        <ele>186.23</ele>
        <time>2019-11-17T07:31:45Z</time>
      </trkpt>
      <trkpt lat="43.28806" lon="2.24538">
        <ele>186.75</ele>
        <time>2019-11-17T07:31:58Z</time>
      </trkpt>
      <trkpt lat="43.28824" lon="2.24546">
        <ele>188.56</ele>
        <time>2019-11-17T07:32:07Z</time>
      </trkpt>
      <trkpt lat="43.28843" lon="2.24542">
        <ele>189.86</ele>
        <time>2019-11-17T07:32:17Z</time>
      </trkpt>
      <trkpt lat="43.28862" lon="2.24536">
        <ele>191.63</ele>
        <time>2019-11-17T07:32:26Z</time>
      </trkpt>
      <trkpt lat="43.28881" lon="2.24536">
        <ele>192.82</ele>
        <time>2019-11-17T07:32:33Z</time>
      </trkpt>
      <trkpt lat="43.289" lon="2.24535">
        <ele>194.25</ele>
        <time>2019-11-17T07:32:41Z</time>
      </trkpt>
      <trkpt lat="43.28919" lon="2.24535">
        <ele>195.8</ele>
        <time>2019-11-17T07:32:49Z</time>
      </trkpt>
      <trkpt lat="43.28938" lon="2.24536">
        <ele>196.96</ele>
        <time>2019-11-17T07:32:57Z</time>
      </trkpt>
      <trkpt lat="43.28957" lon="2.24542">
        <ele>198.27</ele>
        <time>2019-11-17T07:33:06Z</time>
      </trkpt>
      <trkpt lat="43.28973" lon="2.24555">
        <ele>199.59</ele>
        <time>2019-11-17T07:33:14Z</time>
      </trkpt>
      <trkpt lat="43.28991" lon="2.24567">
        <ele>201.28</ele>
        <time>2019-11-17T07:33:23Z</time>
      </trkpt>
      <trkpt lat="43.29008" lon="2.24578">
        <ele>202.72</ele>
        <time>2019-11-17T07:33:32Z</time>
      </trkpt>
      <trkpt lat="43.29023" lon="2.24595">
        <ele>204.23</ele>
        <time>2019-11-17T07:33:41Z</time>
      </trkpt>
      <trkpt lat="43.29032" lon="2.24621">
        <ele>204.83</ele>
        <time>2019-11-17T07:33:50Z</time>
      </trkpt>
      <trkpt lat="43.29043" lon="2.24643">
        <ele>205.34</ele>
        <time>2019-11-17T07:33:59Z</time>
      </trkpt>
      <trkpt lat="43.29058" lon="2.24661">
        <ele>205.82</ele>
        <time>2019-11-17T07:34:09Z</time>
      </trkpt>
      <trkpt lat="43.29073" lon="2.24679">
        <ele>206.42</ele>
        <time>2019-11-17T07:34:18Z</time>
      </trkpt>
      <trkpt lat="43.29093" lon="2.24682">
        <ele>207.86</ele>
        <time>2019-11-17T07:34:27Z</time>
      </trkpt>
      <trkpt lat="43.29113" lon="2.24685">
        <ele>209.36</ele>
        <time>2019-11-17T07:34:36Z</time>
      </trkpt>
      <trkpt lat="43.29133" lon="2.24685">
        <ele>210.83</ele>
        <time>2019-11-17T07:34:46Z</time>
      </trkpt>
      <trkpt lat="43.29152" lon="2.24682">
        <ele>212.47</ele>
        <time>2019-11-17T07:34:56Z</time>
      </trkpt>
      <trkpt lat="43.29173" lon="2.24684">
        <ele>214.7</ele>
        <time>2019-11-17T07:35:05Z</time>
      </trkpt>
      <trkpt lat="43.29194" lon="2.24679">
        <ele>215.05</ele>
        <time>2019-11-17T07:35:14Z</time>
      </trkpt>
      <trkpt lat="43.29214" lon="2.24681">
        <ele>216.17</ele>
        <time>2019-11-17T07:35:23Z</time>
      </trkpt>
      <trkpt lat="43.29233" lon="2.24684">
        <ele>218.08</ele>
        <time>2019-11-17T07:35:32Z</time>
      </trkpt>
      <trkpt lat="43.29251" lon="2.24691">
        <ele>219.54</ele>
        <time>2019-11-17T07:35:41Z</time>
      </trkpt>
      <trkpt lat="43.2927" lon="2.24697">
        <ele>220.03</ele>
        <time>2019-11-17T07:35:50Z</time>
      </trkpt>
      <trkpt lat="43.2929" lon="2.24693">
        <ele>220.92</ele>
        <time>2019-11-17T07:35:59Z</time>
      </trkpt>
      <trkpt lat="43.2931" lon="2.2469">
        <ele>221.67</ele>
        <time>2019-11-17T07:36:08Z</time>
      </trkpt>
      <trkpt lat="43.29324" lon="2.24678">
        <ele>222.18</ele>
        <time>2019-11-17T07:36:18Z</time>
      </trkpt>
      <trkpt lat="43.29339" lon="2.24664">
        <ele>223.81</ele>
        <time>2019-11-17T07:36:31Z</time>
      </trkpt>
      <trkpt lat="43.29358" lon="2.24662">
        <ele>224.72</ele>
        <time>2019-11-17T07:36:39Z</time>
      </trkpt>
      <trkpt lat="43.29377" lon="2.2466">
        <ele>225.53</ele>
        <time>2019-11-17T07:36:47Z</time>
      </trkpt>
      <trkpt lat="43.29396" lon="2.2466">
        <ele>226.58</ele>
        <time>2019-11-17T07:36:55Z</time>
      </trkpt>
      <trkpt lat="43.29415" lon="2.24658">
        <ele>227.66</ele>
        <time>2019-11-17T07:37:03Z</time>
      </trkpt>
      <trkpt lat="43.29431" lon="2.24669">
        <ele>228.11</ele>
        <time>2019-11-17T07:39:19Z</time>
      </trkpt>
      <trkpt lat="43.29441" lon="2.24689">
        <ele>227.41</ele>
        <time>2019-11-17T07:39:28Z</time>
      </trkpt>
      <trkpt lat="43.29454" lon="2.24705">
        <ele>228.79</ele>
        <time>2019-11-17T07:39:41Z</time>
      </trkpt>
      <trkpt lat="43.29467" lon="2.24723">
        <ele>230.67</ele>
        <time>2019-11-17T07:39:51Z</time>
      </trkpt>
      <trkpt lat="43.29481" lon="2.2474">
        <ele>232.23</ele>
        <time>2019-11-17T07:40:01Z</time>
      </trkpt>
      <trkpt lat="43.29495" lon="2.24756">
        <ele>232.78</ele>
        <time>2019-11-17T07:40:11Z</time>
      </trkpt>
      <trkpt lat="43.2951" lon="2.24771">
        <ele>233.47</ele>
        <time>2019-11-17T07:40:21Z</time>
      </trkpt>
      <trkpt lat="43.29526" lon="2.24789">
        <ele>233.65</ele>
        <time>2019-11-17T07:40:31Z</time>
      </trkpt>
      <trkpt lat="43.29539" lon="2.24809">
        <ele>234.57</ele>
        <time>2019-11-17T07:40:40Z</time>
      </trkpt>
      <trkpt lat="43.29557" lon="2.24808">
        <ele>235.7</ele>
        <time>2019-11-17T07:40:49Z</time>
      </trkpt>
      <trkpt lat="43.29568" lon="2.24785">
        <ele>236.71</ele>
        <time>2019-11-17T07:40:58Z</time>
      </trkpt>
      <trkpt lat="43.29588" lon="2.2478">
        <ele>237.25</ele>
        <time>2019-11-17T07:41:07Z</time>
      </trkpt>
      <trkpt lat="43.29608" lon="2.24785">
        <ele>238.32</ele>
        <time>2019-11-17T07:41:16Z</time>
      </trkpt>
      <trkpt lat="43.29626" lon="2.24795">
        <ele>239.59</ele>
        <time>2019-11-17T07:41:24Z</time>
      </trkpt>
      <trkpt lat="43.29641" lon="2.24811">
        <ele>241.08</ele>
        <time>2019-11-17T07:41:38Z</time>
      </trkpt>
      <trkpt lat="43.29646" lon="2.24802">
        <ele>242.25</ele>
        <time>2019-11-17T07:42:21Z</time>
      </trkpt>
      <trkpt lat="43.29657" lon="2.24782">
        <ele>242.37</ele>
        <time>2019-11-17T07:42:40Z</time>
      </trkpt>
      <trkpt lat="43.2967" lon="2.24764">
        <ele>242.41</ele>
        <time>2019-11-17T07:42:49Z</time>
      </trkpt>
      <trkpt lat="43.29684" lon="2.24744">
        <ele>243.02</ele>
        <time>2019-11-17T07:42:59Z</time>
      </trkpt>
      <trkpt lat="43.29699" lon="2.24729">
        <ele>243.58</ele>
        <time>2019-11-17T07:43:08Z</time>
      </trkpt>
      <trkpt lat="43.29714" lon="2.24714">
        <ele>243.57</ele>
        <time>2019-11-17T07:43:17Z</time>
      </trkpt>
      <trkpt lat="43.29732" lon="2.24706">
        <ele>244.89</ele>
        <time>2019-11-17T07:43:26Z</time>
      </trkpt>
      <trkpt lat="43.29749" lon="2.247">
        <ele>246.28</ele>
        <time>2019-11-17T07:43:35Z</time>
      </trkpt>
      <trkpt lat="43.29767" lon="2.24695">
        <ele>247.17</ele>
        <time>2019-11-17T07:43:44Z</time>
      </trkpt>
      <trkpt lat="43.29782" lon="2.24681">
        <ele>248.14</ele>
        <time>2019-11-17T07:43:53Z</time>
      </trkpt>
      <trkpt lat="43.29799" lon="2.24668">
        <ele>248.88</ele>
        <time>2019-11-17T07:44:03Z</time>
      </trkpt>
      <trkpt lat="43.29814" lon="2.24651">
        <ele>249.64</ele>
        <time>2019-11-17T07:44:13Z</time>
      </trkpt>
      <trkpt lat="43.29826" lon="2.24631">
        <ele>250.36</ele>
        <time>2019-11-17T07:44:24Z</time>
      </trkpt>
      <trkpt lat="43.29842" lon="2.24614">
        <ele>250.89</ele>
        <time>2019-11-17T07:44:34Z</time>
      </trkpt>
      <trkpt lat="43.2986" lon="2.2461">
        <ele>251.65</ele>
        <time>2019-11-17T07:44:45Z</time>
      </trkpt>
      <trkpt lat="43.29876" lon="2.24621">
        <ele>252.44</ele>
        <time>2019-11-17T07:44:55Z</time>
      </trkpt>
      <trkpt lat="43.29896" lon="2.24622">
        <ele>253.41</ele>
        <time>2019-11-17T07:45:06Z</time>
      </trkpt>
      <trkpt lat="43.29913" lon="2.24618">
        <ele>254.27</ele>
        <time>2019-11-17T07:45:16Z</time>
      </trkpt>
      <trkpt lat="43.29932" lon="2.24616">
        <ele>255.13</ele>
        <time>2019-11-17T07:45:27Z</time>
      </trkpt>
      <trkpt lat="43.29949" lon="2.24611">
        <ele>256.19</ele>
        <time>2019-11-17T07:45:38Z</time>
      </trkpt>
      <trkpt lat="43.29968" lon="2.24605">
        <ele>257.02</ele>
        <time>2019-11-17T07:45:50Z</time>
      </trkpt>
      <trkpt lat="43.29985" lon="2.24606">
        <ele>258.04</ele>
        <time>2019-11-17T07:46:03Z</time>
      </trkpt>
      <trkpt lat="43.29997" lon="2.24626">
        <ele>258.58</ele>
        <time>2019-11-17T07:46:14Z</time>
      </trkpt>
      <trkpt lat="43.3001" lon="2.24649">
        <ele>259.01</ele>
        <time>2019-11-17T07:46:24Z</time>
      </trkpt>
      <trkpt lat="43.30021" lon="2.2467">
        <ele>259.33</ele>
        <time>2019-11-17T07:46:33Z</time>
      </trkpt>
      <trkpt lat="43.30036" lon="2.24675">
        <ele>259.57</ele>
        <time>2019-11-17T07:46:43Z</time>
      </trkpt>
      <trkpt lat="43.30045" lon="2.24654">
        <ele>260.16</ele>
        <time>2019-11-17T07:46:51Z</time>
      </trkpt>
      <trkpt lat="43.30047" lon="2.24629">
        <ele>260.24</ele>
        <time>2019-11-17T07:46:59Z</time>
      </trkpt>
      <trkpt lat="43.3005" lon="2.24604">
        <ele>260.76</ele>
        <time>2019-11-17T07:47:08Z</time>
      </trkpt>
      <trkpt lat="43.30056" lon="2.24578">
        <ele>260.93</ele>
        <time>2019-11-17T07:47:17Z</time>
      </trkpt>
      <trkpt lat="43.30061" lon="2.24552">
        <ele>261.25</ele>
        <time>2019-11-17T07:47:26Z</time>
      </trkpt>
      <trkpt lat="43.30067" lon="2.24526">
        <ele>261.76</ele>
        <time>2019-11-17T07:47:36Z</time>
      </trkpt>
      <trkpt lat="43.30077" lon="2.24497">
        <ele>262.17</ele>
        <time>2019-11-17T07:47:46Z</time>
      </trkpt>
      <trkpt lat="43.30083" lon="2.24471">
        <ele>262.28</ele>
        <time>2019-11-17T07:47:55Z</time>
      </trkpt>
      <trkpt lat="43.3009" lon="2.24444">
        <ele>261.93</ele>
        <time>2019-11-17T07:48:04Z</time>
      </trkpt>
      <trkpt lat="43.30094" lon="2.24415">
        <ele>261.39</ele>
        <time>2019-11-17T07:48:12Z</time>
      </trkpt>
      <trkpt lat="43.301" lon="2.24389">
        <ele>261.23</ele>
        <time>2019-11-17T07:48:21Z</time>
      </trkpt>
      <trkpt lat="43.30116" lon="2.24398">
        <ele>261.48</ele>
        <time>2019-11-17T07:48:34Z</time>
      </trkpt>
      <trkpt lat="43.30134" lon="2.24413">
        <ele>262.13</ele>
        <time>2019-11-17T07:48:46Z</time>
      </trkpt>
      <trkpt lat="43.30152" lon="2.24431">
        <ele>263.27</ele>
        <time>2019-11-17T07:49:00Z</time>
      </trkpt>
      <trkpt lat="43.30166" lon="2.24446">
        <ele>263.4</ele>
        <time>2019-11-17T07:49:11Z</time>
      </trkpt>
      <trkpt lat="43.30182" lon="2.2446">
        <ele>262.81</ele>
        <time>2019-11-17T07:49:22Z</time>
      </trkpt>
      <trkpt lat="43.30199" lon="2.24476">
        <ele>262.39</ele>
        <time>2019-11-17T07:49:34Z</time>
      </trkpt>
      <trkpt lat="43.30216" lon="2.2449">
        <ele>262.23</ele>
        <time>2019-11-17T07:49:45Z</time>
      </trkpt>
      <trkpt lat="43.30234" lon="2.24508">
        <ele>262.21</ele>
        <time>2019-11-17T07:49:54Z</time>
      </trkpt>
      <trkpt lat="43.30252" lon="2.24523">
        <ele>262.16</ele>
        <time>2019-11-17T07:50:04Z</time>
      </trkpt>
      <trkpt lat="43.30269" lon="2.24538">
        <ele>262.23</ele>
        <time>2019-11-17T07:50:14Z</time>
      </trkpt>
      <trkpt lat="43.30289" lon="2.24543">
        <ele>262.88</ele>
        <time>2019-11-17T07:50:23Z</time>
      </trkpt>
      <trkpt lat="43.30309" lon="2.24543">
        <ele>263.66</ele>
        <time>2019-11-17T07:50:32Z</time>
      </trkpt>
      <trkpt lat="43.30329" lon="2.24542">
        <ele>264.74</ele>
        <time>2019-11-17T07:50:43Z</time>
      </trkpt>
      <trkpt lat="43.30358" lon="2.24535">
        <ele>266.54</ele>
        <time>2019-11-17T07:51:04Z</time>
      </trkpt>
      <trkpt lat="43.3038" lon="2.24533">
        <ele>267.24</ele>
        <time>2019-11-17T07:51:18Z</time>
      </trkpt>
      <trkpt lat="43.304" lon="2.24534">
        <ele>268.74</ele>
        <time>2019-11-17T07:51:29Z</time>
      </trkpt>
      <trkpt lat="43.30418" lon="2.24522">
        <ele>269.79</ele>
        <time>2019-11-17T07:51:38Z</time>
      </trkpt>
      <trkpt lat="43.30435" lon="2.24506">
        <ele>270.87</ele>
        <time>2019-11-17T07:51:47Z</time>
      </trkpt>
      <trkpt lat="43.30454" lon="2.24501">
        <ele>271.46</ele>
        <time>2019-11-17T07:51:58Z</time>
      </trkpt>
      <trkpt lat="43.30474" lon="2.24495">
        <ele>272.64</ele>
        <time>2019-11-17T07:52:08Z</time>
      </trkpt>
      <trkpt lat="43.30493" lon="2.24486">
        <ele>273.88</ele>
        <time>2019-11-17T07:52:18Z</time>
      </trkpt>
      <trkpt lat="43.30513" lon="2.24477">
        <ele>274.84</ele>
        <time>2019-11-17T07:52:28Z</time>
      </trkpt>
      <trkpt lat="43.3053" lon="2.24468">
        <ele>275.64</ele>
        <time>2019-11-17T07:52:37Z</time>
      </trkpt>
      <trkpt lat="43.30549" lon="2.24458">
        <ele>276.5</ele>
        <time>2019-11-17T07:52:47Z</time>
      </trkpt>
      <trkpt lat="43.30568" lon="2.24446">
        <ele>277.24</ele>
        <time>2019-11-17T07:52:57Z</time>
      </trkpt>
      <trkpt lat="43.30587" lon="2.24433">
        <ele>278.53</ele>
        <time>2019-11-17T07:53:07Z</time>
      </trkpt>
      <trkpt lat="43.30605" lon="2.24421">
        <ele>279.36</ele>
        <time>2019-11-17T07:53:16Z</time>
      </trkpt>
      <trkpt lat="43.30622" lon="2.24409">
        <ele>279.96</ele>
        <time>2019-11-17T07:53:25Z</time>
      </trkpt>
      <trkpt lat="43.30642" lon="2.24398">
        <ele>280.87</ele>
        <time>2019-11-17T07:53:34Z</time>
      </trkpt>
      <trkpt lat="43.3066" lon="2.244">
        <ele>281.49</ele>
        <time>2019-11-17T07:53:42Z</time>
      </trkpt>
      <trkpt lat="43.30672" lon="2.2442">
        <ele>280.16</ele>
        <time>2019-11-17T07:53:51Z</time>
      </trkpt>
      <trkpt lat="43.30684" lon="2.24439">
        <ele>279.32</ele>
        <time>2019-11-17T07:54:02Z</time>
      </trkpt>
      <trkpt lat="43.30692" lon="2.24462">
        <ele>278.89</ele>
        <time>2019-11-17T07:54:17Z</time>
      </trkpt>
      <trkpt lat="43.30702" lon="2.24485">
        <ele>278.39</ele>
        <time>2019-11-17T07:54:30Z</time>
      </trkpt>
      <trkpt lat="43.30716" lon="2.24499">
        <ele>278.95</ele>
        <time>2019-11-17T07:55:04Z</time>
      </trkpt>
      <trkpt lat="43.30734" lon="2.24489">
        <ele>279.54</ele>
        <time>2019-11-17T07:55:19Z</time>
      </trkpt>
      <trkpt lat="43.30752" lon="2.24498">
        <ele>281.37</ele>
        <time>2019-11-17T07:55:29Z</time>
      </trkpt>
      <trkpt lat="43.30769" lon="2.24513">
        <ele>282.57</ele>
        <time>2019-11-17T07:55:38Z</time>
      </trkpt>
      <trkpt lat="43.30784" lon="2.2453">
        <ele>283.41</ele>
        <time>2019-11-17T07:55:47Z</time>
      </trkpt>
      <trkpt lat="43.30798" lon="2.24546">
        <ele>284.67</ele>
        <time>2019-11-17T07:55:56Z</time>
      </trkpt>
      <trkpt lat="43.30814" lon="2.24562">
        <ele>285.61</ele>
        <time>2019-11-17T07:56:05Z</time>
      </trkpt>
      <trkpt lat="43.30829" lon="2.24576">
        <ele>286.63</ele>
        <time>2019-11-17T07:56:14Z</time>
      </trkpt>
      <trkpt lat="43.30847" lon="2.24587">
        <ele>287.64</ele>
        <time>2019-11-17T07:56:24Z</time>
      </trkpt>
      <trkpt lat="43.30864" lon="2.24597">
        <ele>288.17</ele>
        <time>2019-11-17T07:56:33Z</time>
      </trkpt>
      <trkpt lat="43.30885" lon="2.24603">
        <ele>288.87</ele>
        <time>2019-11-17T07:56:43Z</time>
      </trkpt>
      <trkpt lat="43.30904" lon="2.24611">
        <ele>289.41</ele>
        <time>2019-11-17T07:56:52Z</time>
      </trkpt>
      <trkpt lat="43.30921" lon="2.24623">
        <ele>290.27</ele>
        <time>2019-11-17T07:57:02Z</time>
      </trkpt>
      <trkpt lat="43.30938" lon="2.24639">
        <ele>290.96</ele>
        <time>2019-11-17T07:57:11Z</time>
      </trkpt>
      <trkpt lat="43.30954" lon="2.24646">
        <ele>290.7</ele>
        <time>2019-11-17T07:58:04Z</time>
      </trkpt>
      <trkpt lat="43.30973" lon="2.24638">
        <ele>290.85</ele>
        <time>2019-11-17T07:58:37Z</time>
      </trkpt>
      <trkpt lat="43.30995" lon="2.24637">
        <ele>293.45</ele>
        <time>2019-11-17T07:58:54Z</time>
      </trkpt>
      <trkpt lat="43.31017" lon="2.24633">
        <ele>295.03</ele>
        <time>2019-11-17T07:59:05Z</time>
      </trkpt>
      <trkpt lat="43.31037" lon="2.24628">
        <ele>296.12</ele>
        <time>2019-11-17T07:59:14Z</time>
      </trkpt>
      <trkpt lat="43.31058" lon="2.24625">
        <ele>297.07</ele>
        <time>2019-11-17T07:59:23Z</time>
      </trkpt>
      <trkpt lat="43.31078" lon="2.24621">
        <ele>298.12</ele>
        <time>2019-11-17T07:59:33Z</time>
      </trkpt>
      <trkpt lat="43.31098" lon="2.24617">
        <ele>299.31</ele>
        <time>2019-11-17T07:59:43Z</time>
      </trkpt>
      <trkpt lat="43.31117" lon="2.24612">
        <ele>300.05</ele>
        <time>2019-11-17T07:59:52Z</time>
      </trkpt>
      <trkpt lat="43.31137" lon="2.24609">
        <ele>300.93</ele>
        <time>2019-11-17T08:00:02Z</time>
      </trkpt>
      <trkpt lat="43.31157" lon="2.24605">
        <ele>302.23</ele>
        <time>2019-11-17T08:00:11Z</time>
      </trkpt>
      <trkpt lat="43.31178" lon="2.246">
        <ele>303.1</ele>
        <time>2019-11-17T08:00:21Z</time>
      </trkpt>
      <trkpt lat="43.31199" lon="2.24595">
        <ele>304.24</ele>
        <time>2019-11-17T08:00:32Z</time>
      </trkpt>
      <trkpt lat="43.31219" lon="2.24591">
        <ele>305.6</ele>
        <time>2019-11-17T08:00:42Z</time>
      </trkpt>
      <trkpt lat="43.31238" lon="2.24585">
        <ele>306.77</ele>
        <time>2019-11-17T08:00:52Z</time>
      </trkpt>
      <trkpt lat="43.31258" lon="2.24579">
        <ele>307.57</ele>
        <time>2019-11-17T08:01:01Z</time>
      </trkpt>
      <trkpt lat="43.31277" lon="2.24575">
        <ele>308.61</ele>
        <time>2019-11-17T08:01:10Z</time>
      </trkpt>
      <trkpt lat="43.31296" lon="2.24573">
        <ele>309.47</ele>
        <time>2019-11-17T08:01:21Z</time>
      </trkpt>
      <trkpt lat="43.31316" lon="2.24572">
        <ele>310.12</ele>
        <time>2019-11-17T08:01:35Z</time>
      </trkpt>
      <trkpt lat="43.31335" lon="2.24568">
        <ele>310.87</ele>
        <time>2019-11-17T08:01:44Z</time>
      </trkpt>
      <trkpt lat="43.3135" lon="2.24556">
        <ele>311.62</ele>
        <time>2019-11-17T08:02:01Z</time>
      </trkpt>
      <trkpt lat="43.31362" lon="2.24536">
        <ele>311.85</ele>
        <time>2019-11-17T08:02:16Z</time>
      </trkpt>
      <trkpt lat="43.31377" lon="2.24517">
        <ele>311.11</ele>
        <time>2019-11-17T08:02:39Z</time>
      </trkpt>
      <trkpt lat="43.31389" lon="2.24495">
        <ele>308.83</ele>
        <time>2019-11-17T08:03:31Z</time>
      </trkpt>
      <trkpt lat="43.31389" lon="2.24474">
        <ele>310.31</ele>
        <time>2019-11-17T08:04:34Z</time>
      </trkpt>
      <trkpt lat="43.31393" lon="2.24437">
        <ele>309.54</ele>
        <time>2019-11-17T08:05:02Z</time>
      </trkpt>
      <trkpt lat="43.31409" lon="2.24417">
        <ele>309.48</ele>
        <time>2019-11-17T08:05:18Z</time>
      </trkpt>
      <trkpt lat="43.31416" lon="2.24393">
        <ele>310.25</ele>
        <time>2019-11-17T08:05:30Z</time>
      </trkpt>
      <trkpt lat="43.31418" lon="2.24364">
        <ele>310.48</ele>
        <time>2019-11-17T08:05:42Z</time>
      </trkpt>
      <trkpt lat="43.31423" lon="2.24333">
        <ele>311.15</ele>
        <time>2019-11-17T08:05:53Z</time>
      </trkpt>
      <trkpt lat="43.31429" lon="2.24302">
        <ele>311.86</ele>
        <time>2019-11-17T08:06:03Z</time>
      </trkpt>
      <trkpt lat="43.3144" lon="2.24276">
        <ele>312.13</ele>
        <time>2019-11-17T08:06:13Z</time>
      </trkpt>
      <trkpt lat="43.31456" lon="2.24255">
        <ele>312.99</ele>
        <time>2019-11-17T08:06:23Z</time>
      </trkpt>
      <trkpt lat="43.31469" lon="2.24235">
        <ele>313.56</ele>
        <time>2019-11-17T08:06:32Z</time>
      </trkpt>
      <trkpt lat="43.3147" lon="2.2421">
        <ele>313.27</ele>
        <time>2019-11-17T08:06:52Z</time>
      </trkpt>
      <trkpt lat="43.31473" lon="2.24172">
        <ele>313.79</ele>
        <time>2019-11-17T08:07:03Z</time>
      </trkpt>
      <trkpt lat="43.31476" lon="2.24136">
        <ele>313.85</ele>
        <time>2019-11-17T08:07:14Z</time>
      </trkpt>
      <trkpt lat="43.31489" lon="2.24104">
        <ele>313.68</ele>
        <time>2019-11-17T08:07:24Z</time>
      </trkpt>
      <trkpt lat="43.31502" lon="2.24073">
        <ele>314.44</ele>
        <time>2019-11-17T08:07:37Z</time>
      </trkpt>
      <trkpt lat="43.31505" lon="2.24048">
        <ele>314.33</ele>
        <time>2019-11-17T08:07:46Z</time>
      </trkpt>
      <trkpt lat="43.31504" lon="2.24017">
        <ele>313.37</ele>
        <time>2019-11-17T08:07:58Z</time>
      </trkpt>
      <trkpt lat="43.31508" lon="2.23983">
        <ele>312.55</ele>
        <time>2019-11-17T08:08:09Z</time>
      </trkpt>
      <trkpt lat="43.31508" lon="2.23953">
        <ele>311.41</ele>
        <time>2019-11-17T08:08:20Z</time>
      </trkpt>
      <trkpt lat="43.31516" lon="2.23923">
        <ele>308.36</ele>
        <time>2019-11-17T08:08:29Z</time>
      </trkpt>
      <trkpt lat="43.31527" lon="2.23894">
        <ele>303.85</ele>
        <time>2019-11-17T08:08:42Z</time>
      </trkpt>
      <trkpt lat="43.31534" lon="2.23865">
        <ele>300.76</ele>
        <time>2019-11-17T08:08:52Z</time>
      </trkpt>
      <trkpt lat="43.31525" lon="2.23838">
        <ele>298.02</ele>
        <time>2019-11-17T08:09:00Z</time>
      </trkpt>
      <trkpt lat="43.31518" lon="2.23817">
        <ele>297.01</ele>
        <time>2019-11-17T08:09:12Z</time>
      </trkpt>
      <trkpt lat="43.31501" lon="2.23805">
        <ele>296.92</ele>
        <time>2019-11-17T08:09:23Z</time>
      </trkpt>
      <trkpt lat="43.31487" lon="2.23789">
        <ele>296.98</ele>
        <time>2019-11-17T08:09:40Z</time>
      </trkpt>
      <trkpt lat="43.31468" lon="2.23788">
        <ele>296.72</ele>
        <time>2019-11-17T08:09:56Z</time>
      </trkpt>
      <trkpt lat="43.31449" lon="2.23787">
        <ele>295.88</ele>
        <time>2019-11-17T08:10:11Z</time>
      </trkpt>
      <trkpt lat="43.31435" lon="2.23777">
        <ele>293.61</ele>
        <time>2019-11-17T08:10:54Z</time>
      </trkpt>
      <trkpt lat="43.31451" lon="2.23766">
        <ele>293.4</ele>
        <time>2019-11-17T08:11:26Z</time>
      </trkpt>
      <trkpt lat="43.31467" lon="2.23756">
        <ele>291.87</ele>
        <time>2019-11-17T08:11:35Z</time>
      </trkpt>
      <trkpt lat="43.31483" lon="2.23743">
        <ele>290.52</ele>
        <time>2019-11-17T08:11:43Z</time>
      </trkpt>
      <trkpt lat="43.31502" lon="2.23732">
        <ele>289.25</ele>
        <time>2019-11-17T08:11:51Z</time>
      </trkpt>
      <trkpt lat="43.31521" lon="2.2372">
        <ele>288.02</ele>
        <time>2019-11-17T08:11:59Z</time>
      </trkpt>
      <trkpt lat="43.31539" lon="2.23708">
        <ele>287.59</ele>
        <time>2019-11-17T08:12:07Z</time>
      </trkpt>
      <trkpt lat="43.31549" lon="2.23686">
        <ele>287.11</ele>
        <time>2019-11-17T08:12:16Z</time>
      </trkpt>
      <trkpt lat="43.31541" lon="2.23659">
        <ele>286.6</ele>
        <time>2019-11-17T08:12:25Z</time>
      </trkpt>
      <trkpt lat="43.3153" lon="2.23636">
        <ele>285.5</ele>
        <time>2019-11-17T08:12:33Z</time>
      </trkpt>
      <trkpt lat="43.31518" lon="2.23614">
        <ele>284.29</ele>
        <time>2019-11-17T08:12:41Z</time>
      </trkpt>
      <trkpt lat="43.31506" lon="2.23592">
        <ele>283.34</ele>
        <time>2019-11-17T08:12:49Z</time>
      </trkpt>
      <trkpt lat="43.31493" lon="2.23569">
        <ele>282.58</ele>
        <time>2019-11-17T08:12:57Z</time>
      </trkpt>
      <trkpt lat="43.31481" lon="2.2355">
        <ele>281.82</ele>
        <time>2019-11-17T08:13:04Z</time>
      </trkpt>
      <trkpt lat="43.31467" lon="2.23531">
        <ele>281.03</ele>
        <time>2019-11-17T08:13:11Z</time>
      </trkpt>
      <trkpt lat="43.31453" lon="2.23513">
        <ele>280.52</ele>
        <time>2019-11-17T08:13:18Z</time>
      </trkpt>
      <trkpt lat="43.31438" lon="2.23497">
        <ele>279.45</ele>
        <time>2019-11-17T08:13:25Z</time>
      </trkpt>
      <trkpt lat="43.31422" lon="2.23485">
        <ele>278.19</ele>
        <time>2019-11-17T08:13:32Z</time>
      </trkpt>
      <trkpt lat="43.31405" lon="2.23475">
        <ele>276.74</ele>
        <time>2019-11-17T08:13:39Z</time>
      </trkpt>
      <trkpt lat="43.31393" lon="2.23457">
        <ele>275.95</ele>
        <time>2019-11-17T08:13:46Z</time>
      </trkpt>
      <trkpt lat="43.31388" lon="2.23431">
        <ele>274.76</ele>
        <time>2019-11-17T08:13:53Z</time>
      </trkpt>
      <trkpt lat="43.31381" lon="2.23406">
        <ele>273.14</ele>
        <time>2019-11-17T08:14:00Z</time>
      </trkpt>
      <trkpt lat="43.3137" lon="2.23385">
        <ele>272.25</ele>
        <time>2019-11-17T08:14:07Z</time>
      </trkpt>
      <trkpt lat="43.31365" lon="2.23361">
        <ele>270.9</ele>
        <time>2019-11-17T08:14:14Z</time>
      </trkpt>
      <trkpt lat="43.31359" lon="2.23339">
        <ele>267.89</ele>
        <time>2019-11-17T08:14:26Z</time>
      </trkpt>
      <trkpt lat="43.31353" lon="2.23319">
        <ele>260.47</ele>
        <time>2019-11-17T08:15:01Z</time>
      </trkpt>
      <trkpt lat="43.31336" lon="2.2331">
        <ele>253.81</ele>
        <time>2019-11-17T08:15:22Z</time>
      </trkpt>
      <trkpt lat="43.31316" lon="2.23302">
        <ele>249.62</ele>
        <time>2019-11-17T08:15:44Z</time>
      </trkpt>
      <trkpt lat="43.31304" lon="2.23281">
        <ele>246.73</ele>
        <time>2019-11-17T08:16:01Z</time>
      </trkpt>
      <trkpt lat="43.31295" lon="2.23257">
        <ele>244.15</ele>
        <time>2019-11-17T08:16:23Z</time>
      </trkpt>
      <trkpt lat="43.31284" lon="2.23236">
        <ele>242.78</ele>
        <time>2019-11-17T08:16:42Z</time>
      </trkpt>
      <trkpt lat="43.31268" lon="2.2322">
        <ele>240.25</ele>
        <time>2019-11-17T08:17:15Z</time>
      </trkpt>
      <trkpt lat="43.31274" lon="2.23206">
        <ele>240.89</ele>
        <time>2019-11-17T08:18:09Z</time>
      </trkpt>
      <trkpt lat="43.31265" lon="2.23216">
        <ele>240.86</ele>
        <time>2019-11-17T08:18:52Z</time>
      </trkpt>
      <trkpt lat="43.31255" lon="2.23194">
        <ele>239.36</ele>
        <time>2019-11-17T08:19:16Z</time>
      </trkpt>
      <trkpt lat="43.31241" lon="2.23173">
        <ele>237.57</ele>
        <time>2019-11-17T08:19:27Z</time>
      </trkpt>
      <trkpt lat="43.31226" lon="2.23157">
        <ele>233.99</ele>
        <time>2019-11-17T08:19:37Z</time>
      </trkpt>
      <trkpt lat="43.31213" lon="2.23136">
        <ele>231.97</ele>
        <time>2019-11-17T08:19:48Z</time>
      </trkpt>
      <trkpt lat="43.312" lon="2.23116">
        <ele>228.9</ele>
        <time>2019-11-17T08:19:59Z</time>
      </trkpt>
      <trkpt lat="43.31193" lon="2.23087">
        <ele>226.7</ele>
        <time>2019-11-17T08:20:09Z</time>
      </trkpt>
      <trkpt lat="43.3118" lon="2.23063">
        <ele>223.89</ele>
        <time>2019-11-17T08:20:20Z</time>
      </trkpt>
      <trkpt lat="43.31165" lon="2.2304">
        <ele>222.35</ele>
        <time>2019-11-17T08:20:30Z</time>
      </trkpt>
      <trkpt lat="43.31146" lon="2.23021">
        <ele>220.59</ele>
        <time>2019-11-17T08:20:42Z</time>
      </trkpt>
      <trkpt lat="43.31132" lon="2.22995">
        <ele>219.95</ele>
        <time>2019-11-17T08:20:50Z</time>
      </trkpt>
      <trkpt lat="43.31115" lon="2.22975">
        <ele>218.33</ele>
        <time>2019-11-17T08:20:58Z</time>
      </trkpt>
      <trkpt lat="43.31104" lon="2.22949">
        <ele>216.1</ele>
        <time>2019-11-17T08:21:06Z</time>
      </trkpt>
      <trkpt lat="43.31097" lon="2.22925">
        <ele>213.42</ele>
        <time>2019-11-17T08:21:14Z</time>
      </trkpt>
      <trkpt lat="43.31091" lon="2.22897">
        <ele>211.72</ele>
        <time>2019-11-17T08:21:23Z</time>
      </trkpt>
      <trkpt lat="43.31081" lon="2.22871">
        <ele>210.81</ele>
        <time>2019-11-17T08:21:32Z</time>
      </trkpt>
      <trkpt lat="43.31069" lon="2.22847">
        <ele>209.76</ele>
        <time>2019-11-17T08:21:40Z</time>
      </trkpt>
      <trkpt lat="43.31056" lon="2.22822">
        <ele>208.95</ele>
        <time>2019-11-17T08:21:48Z</time>
      </trkpt>
      <trkpt lat="43.31044" lon="2.22803">
        <ele>208.33</ele>
        <time>2019-11-17T08:21:55Z</time>
      </trkpt>
      <trkpt lat="43.31033" lon="2.22784">
        <ele>207.18</ele>
        <time>2019-11-17T08:22:03Z</time>
      </trkpt>
      <trkpt lat="43.31024" lon="2.22761">
        <ele>206.65</ele>
        <time>2019-11-17T08:22:11Z</time>
      </trkpt>
      <trkpt lat="43.31018" lon="2.22735">
        <ele>206.2</ele>
        <time>2019-11-17T08:22:20Z</time>
      </trkpt>
      <trkpt lat="43.31012" lon="2.22708">
        <ele>205.85</ele>
        <time>2019-11-17T08:22:28Z</time>
      </trkpt>
      <trkpt lat="43.31006" lon="2.22681">
        <ele>205.69</ele>
        <time>2019-11-17T08:22:36Z</time>
      </trkpt>
      <trkpt lat="43.31" lon="2.22654">
        <ele>204.96</ele>
        <time>2019-11-17T08:22:44Z</time>
      </trkpt>
      <trkpt lat="43.30997" lon="2.22628">
        <ele>204.04</ele>
        <time>2019-11-17T08:22:52Z</time>
      </trkpt>
      <trkpt lat="43.30999" lon="2.226">
        <ele>203.59</ele>
        <time>2019-11-17T08:23:00Z</time>
      </trkpt>
      <trkpt lat="43.30998" lon="2.22573">
        <ele>203.23</ele>
        <time>2019-11-17T08:23:08Z</time>
      </trkpt>
      <trkpt lat="43.30987" lon="2.22551">
        <ele>202.39</ele>
        <time>2019-11-17T08:23:16Z</time>
      </trkpt>
      <trkpt lat="43.30973" lon="2.22529">
        <ele>201.72</ele>
        <time>2019-11-17T08:23:24Z</time>
      </trkpt>
      <trkpt lat="43.30962" lon="2.22508">
        <ele>201.51</ele>
        <time>2019-11-17T08:23:31Z</time>
      </trkpt>
      <trkpt lat="43.30952" lon="2.22482">
        <ele>201.11</ele>
        <time>2019-11-17T08:23:39Z</time>
      </trkpt>
      <trkpt lat="43.30945" lon="2.22458">
        <ele>200.83</ele>
        <time>2019-11-17T08:23:46Z</time>
      </trkpt>
      <trkpt lat="43.30939" lon="2.22433">
        <ele>200.67</ele>
        <time>2019-11-17T08:23:53Z</time>
      </trkpt>
      <trkpt lat="43.30932" lon="2.22407">
        <ele>199.45</ele>
        <time>2019-11-17T08:24:01Z</time>
      </trkpt>
      <trkpt lat="43.30925" lon="2.22381">
        <ele>197.82</ele>
        <time>2019-11-17T08:24:08Z</time>
      </trkpt>
      <trkpt lat="43.30919" lon="2.22356">
        <ele>196.79</ele>
        <time>2019-11-17T08:24:15Z</time>
      </trkpt>
      <trkpt lat="43.30913" lon="2.22329">
        <ele>195.17</ele>
        <time>2019-11-17T08:24:22Z</time>
      </trkpt>
      <trkpt lat="43.30905" lon="2.22305">
        <ele>193.42</ele>
        <time>2019-11-17T08:24:29Z</time>
      </trkpt>
      <trkpt lat="43.30892" lon="2.22285">
        <ele>191.79</ele>
        <time>2019-11-17T08:24:36Z</time>
      </trkpt>
      <trkpt lat="43.30876" lon="2.22268">
        <ele>189.68</ele>
        <time>2019-11-17T08:24:44Z</time>
      </trkpt>
      <trkpt lat="43.30874" lon="2.22291">
        <ele>188.33</ele>
        <time>2019-11-17T08:24:54Z</time>
      </trkpt>
      <trkpt lat="43.30877" lon="2.22317">
        <ele>189.38</ele>
        <time>2019-11-17T08:25:03Z</time>
      </trkpt>
      <trkpt lat="43.30878" lon="2.22342">
        <ele>190.43</ele>
        <time>2019-11-17T08:25:14Z</time>
      </trkpt>
      <trkpt lat="43.30879" lon="2.2237">
        <ele>191.61</ele>
        <time>2019-11-17T08:25:27Z</time>
      </trkpt>
      <trkpt lat="43.30877" lon="2.22396">
        <ele>191.89</ele>
        <time>2019-11-17T08:25:39Z</time>
      </trkpt>
      <trkpt lat="43.30875" lon="2.22423">
        <ele>192.03</ele>
        <time>2019-11-17T08:25:49Z</time>
      </trkpt>
      <trkpt lat="43.30873" lon="2.22449">
        <ele>192.51</ele>
        <time>2019-11-17T08:25:57Z</time>
      </trkpt>
      <trkpt lat="43.30874" lon="2.22477">
        <ele>192.47</ele>
        <time>2019-11-17T08:26:05Z</time>
      </trkpt>
      <trkpt lat="43.30874" lon="2.22504">
        <ele>192.6</ele>
        <time>2019-11-17T08:26:13Z</time>
      </trkpt>
      <trkpt lat="43.30876" lon="2.22532">
        <ele>192.75</ele>
        <time>2019-11-17T08:26:21Z</time>
      </trkpt>
      <trkpt lat="43.30878" lon="2.22559">
        <ele>192.64</ele>
        <time>2019-11-17T08:26:29Z</time>
      </trkpt>
      <trkpt lat="43.30879" lon="2.22587">
        <ele>192.75</ele>
        <time>2019-11-17T08:26:37Z</time>
      </trkpt>
      <trkpt lat="43.30882" lon="2.22616">
        <ele>192.64</ele>
        <time>2019-11-17T08:26:45Z</time>
      </trkpt>
      <trkpt lat="43.30888" lon="2.22641">
        <ele>192.5</ele>
        <time>2019-11-17T08:26:52Z</time>
      </trkpt>
      <trkpt lat="43.30897" lon="2.22665">
        <ele>192.28</ele>
        <time>2019-11-17T08:27:00Z</time>
      </trkpt>
      <trkpt lat="43.30904" lon="2.22689">
        <ele>192.39</ele>
        <time>2019-11-17T08:27:08Z</time>
      </trkpt>
      <trkpt lat="43.30911" lon="2.22715">
        <ele>193.31</ele>
        <time>2019-11-17T08:27:17Z</time>
      </trkpt>
      <trkpt lat="43.30917" lon="2.22741">
        <ele>194.28</ele>
        <time>2019-11-17T08:27:26Z</time>
      </trkpt>
      <trkpt lat="43.30924" lon="2.22766">
        <ele>195.53</ele>
        <time>2019-11-17T08:27:34Z</time>
      </trkpt>
      <trkpt lat="43.30932" lon="2.22791">
        <ele>196.31</ele>
        <time>2019-11-17T08:27:42Z</time>
      </trkpt>
      <trkpt lat="43.30939" lon="2.22816">
        <ele>196.59</ele>
        <time>2019-11-17T08:27:50Z</time>
      </trkpt>
      <trkpt lat="43.30944" lon="2.22841">
        <ele>197.56</ele>
        <time>2019-11-17T08:27:58Z</time>
      </trkpt>
      <trkpt lat="43.30946" lon="2.22869">
        <ele>197.92</ele>
        <time>2019-11-17T08:28:06Z</time>
      </trkpt>
      <trkpt lat="43.30945" lon="2.22897">
        <ele>197.65</ele>
        <time>2019-11-17T08:28:14Z</time>
      </trkpt>
      <trkpt lat="43.30943" lon="2.22925">
        <ele>197.08</ele>
        <time>2019-11-17T08:28:22Z</time>
      </trkpt>
      <trkpt lat="43.30937" lon="2.22953">
        <ele>196.68</ele>
        <time>2019-11-17T08:28:30Z</time>
      </trkpt>
      <trkpt lat="43.30929" lon="2.22977">
        <ele>196.25</ele>
        <time>2019-11-17T08:28:37Z</time>
      </trkpt>
      <trkpt lat="43.30916" lon="2.22998">
        <ele>195.91</ele>
        <time>2019-11-17T08:28:45Z</time>
      </trkpt>
      <trkpt lat="43.30901" lon="2.23015">
        <ele>195.85</ele>
        <time>2019-11-17T08:28:53Z</time>
      </trkpt>
      <trkpt lat="43.30887" lon="2.23033">
        <ele>195.96</ele>
        <time>2019-11-17T08:29:00Z</time>
      </trkpt>
      <trkpt lat="43.30875" lon="2.23053">
        <ele>196.02</ele>
        <time>2019-11-17T08:29:08Z</time>
      </trkpt>
      <trkpt lat="43.30866" lon="2.23075">
        <ele>195.46</ele>
        <time>2019-11-17T08:29:17Z</time>
      </trkpt>
      <trkpt lat="43.30855" lon="2.23099">
        <ele>193.95</ele>
        <time>2019-11-17T08:29:25Z</time>
      </trkpt>
      <trkpt lat="43.30844" lon="2.23122">
        <ele>193.12</ele>
        <time>2019-11-17T08:29:32Z</time>
      </trkpt>
      <trkpt lat="43.30845" lon="2.23147">
        <ele>192.79</ele>
        <time>2019-11-17T08:29:41Z</time>
      </trkpt>
      <trkpt lat="43.30851" lon="2.23166">
        <ele>192.75</ele>
        <time>2019-11-17T08:30:02Z</time>
      </trkpt>
      <trkpt lat="43.30839" lon="2.23187">
        <ele>192.92</ele>
        <time>2019-11-17T08:30:12Z</time>
      </trkpt>
      <trkpt lat="43.30827" lon="2.23208">
        <ele>193.76</ele>
        <time>2019-11-17T08:30:21Z</time>
      </trkpt>
      <trkpt lat="43.30813" lon="2.2323">
        <ele>194.64</ele>
        <time>2019-11-17T08:30:30Z</time>
      </trkpt>
      <trkpt lat="43.30801" lon="2.23251">
        <ele>195.64</ele>
        <time>2019-11-17T08:30:39Z</time>
      </trkpt>
      <trkpt lat="43.30789" lon="2.23272">
        <ele>196.91</ele>
        <time>2019-11-17T08:30:48Z</time>
      </trkpt>
      <trkpt lat="43.30778" lon="2.23296">
        <ele>197.65</ele>
        <time>2019-11-17T08:30:56Z</time>
      </trkpt>
      <trkpt lat="43.30769" lon="2.23319">
        <ele>198.07</ele>
        <time>2019-11-17T08:31:04Z</time>
      </trkpt>
      <trkpt lat="43.3076" lon="2.23343">
        <ele>198.21</ele>
        <time>2019-11-17T08:31:12Z</time>
      </trkpt>
      <trkpt lat="43.3075" lon="2.23365">
        <ele>198.61</ele>
        <time>2019-11-17T08:31:20Z</time>
      </trkpt>
      <trkpt lat="43.30738" lon="2.23388">
        <ele>198.79</ele>
        <time>2019-11-17T08:31:28Z</time>
      </trkpt>
      <trkpt lat="43.30725" lon="2.2341">
        <ele>198.53</ele>
        <time>2019-11-17T08:31:36Z</time>
      </trkpt>
      <trkpt lat="43.30717" lon="2.23431">
        <ele>198.76</ele>
        <time>2019-11-17T08:31:43Z</time>
      </trkpt>
      <trkpt lat="43.3071" lon="2.23458">
        <ele>199.63</ele>
        <time>2019-11-17T08:31:51Z</time>
      </trkpt>
      <trkpt lat="43.30697" lon="2.2348">
        <ele>201.02</ele>
        <time>2019-11-17T08:31:59Z</time>
      </trkpt>
      <trkpt lat="43.30684" lon="2.23499">
        <ele>200.97</ele>
        <time>2019-11-17T08:32:07Z</time>
      </trkpt>
      <trkpt lat="43.30671" lon="2.23517">
        <ele>199.88</ele>
        <time>2019-11-17T08:32:15Z</time>
      </trkpt>
      <trkpt lat="43.30666" lon="2.23541">
        <ele>199.18</ele>
        <time>2019-11-17T08:33:35Z</time>
      </trkpt>
      <trkpt lat="43.30662" lon="2.23564">
        <ele>199.76</ele>
        <time>2019-11-17T08:34:07Z</time>
      </trkpt>
      <trkpt lat="43.30658" lon="2.23588">
        <ele>200.13</ele>
        <time>2019-11-17T08:34:24Z</time>
      </trkpt>
      <trkpt lat="43.30649" lon="2.23611">
        <ele>200.12</ele>
        <time>2019-11-17T08:34:36Z</time>
      </trkpt>
      <trkpt lat="43.30635" lon="2.23617">
        <ele>202.66</ele>
        <time>2019-11-17T08:34:49Z</time>
      </trkpt>
      <trkpt lat="43.30627" lon="2.23595">
        <ele>206.25</ele>
        <time>2019-11-17T08:34:59Z</time>
      </trkpt>
      <trkpt lat="43.30616" lon="2.23574">
        <ele>209.81</ele>
        <time>2019-11-17T08:35:08Z</time>
      </trkpt>
      <trkpt lat="43.30607" lon="2.23552">
        <ele>213.35</ele>
        <time>2019-11-17T08:35:17Z</time>
      </trkpt>
      <trkpt lat="43.30592" lon="2.23535">
        <ele>217.84</ele>
        <time>2019-11-17T08:35:29Z</time>
      </trkpt>
      <trkpt lat="43.30576" lon="2.23543">
        <ele>221.98</ele>
        <time>2019-11-17T08:35:41Z</time>
      </trkpt>
      <trkpt lat="43.30558" lon="2.23553">
        <ele>226.76</ele>
        <time>2019-11-17T08:35:55Z</time>
      </trkpt>
      <trkpt lat="43.30542" lon="2.23566">
        <ele>231.5</ele>
        <time>2019-11-17T08:36:08Z</time>
      </trkpt>
      <trkpt lat="43.30531" lon="2.23583">
        <ele>234.69</ele>
        <time>2019-11-17T08:36:32Z</time>
      </trkpt>
      <trkpt lat="43.30522" lon="2.23564">
        <ele>235.99</ele>
        <time>2019-11-17T08:38:07Z</time>
      </trkpt>
      <trkpt lat="43.30511" lon="2.23544">
        <ele>238.82</ele>
        <time>2019-11-17T08:38:21Z</time>
      </trkpt>
      <trkpt lat="43.30498" lon="2.23527">
        <ele>242.77</ele>
        <time>2019-11-17T08:38:41Z</time>
      </trkpt>
      <trkpt lat="43.30485" lon="2.23509">
        <ele>244.83</ele>
        <time>2019-11-17T08:38:56Z</time>
      </trkpt>
      <trkpt lat="43.3047" lon="2.23493">
        <ele>244.26</ele>
        <time>2019-11-17T08:39:14Z</time>
      </trkpt>
      <trkpt lat="43.30459" lon="2.23473">
        <ele>241.11</ele>
        <time>2019-11-17T08:39:28Z</time>
      </trkpt>
      <trkpt lat="43.30448" lon="2.23448">
        <ele>239.83</ele>
        <time>2019-11-17T08:39:39Z</time>
      </trkpt>
      <trkpt lat="43.30443" lon="2.23422">
        <ele>238.47</ele>
        <time>2019-11-17T08:39:50Z</time>
      </trkpt>
      <trkpt lat="43.3044" lon="2.23393">
        <ele>237.18</ele>
        <time>2019-11-17T08:40:01Z</time>
      </trkpt>
      <trkpt lat="43.30438" lon="2.23363">
        <ele>236.75</ele>
        <time>2019-11-17T08:40:10Z</time>
      </trkpt>
      <trkpt lat="43.30435" lon="2.23333">
        <ele>236.33</ele>
        <time>2019-11-17T08:40:19Z</time>
      </trkpt>
      <trkpt lat="43.30435" lon="2.23303">
        <ele>235.64</ele>
        <time>2019-11-17T08:40:28Z</time>
      </trkpt>
      <trkpt lat="43.30438" lon="2.23271">
        <ele>234.65</ele>
        <time>2019-11-17T08:40:37Z</time>
      </trkpt>
      <trkpt lat="43.30442" lon="2.2324">
        <ele>233.45</ele>
        <time>2019-11-17T08:40:46Z</time>
      </trkpt>
      <trkpt lat="43.30445" lon="2.23211">
        <ele>232.62</ele>
        <time>2019-11-17T08:40:55Z</time>
      </trkpt>
      <trkpt lat="43.30445" lon="2.23181">
        <ele>231.01</ele>
        <time>2019-11-17T08:41:04Z</time>
      </trkpt>
      <trkpt lat="43.30451" lon="2.23148">
        <ele>229.11</ele>
        <time>2019-11-17T08:41:30Z</time>
      </trkpt>
      <trkpt lat="43.30453" lon="2.23121">
        <ele>229.45</ele>
        <time>2019-11-17T08:41:39Z</time>
      </trkpt>
      <trkpt lat="43.30457" lon="2.23123">
        <ele>229.86</ele>
        <time>2019-11-17T08:41:48Z</time>
      </trkpt>
      <trkpt lat="43.30456" lon="2.23148">
        <ele>231.08</ele>
        <time>2019-11-17T08:41:54Z</time>
      </trkpt>
      <trkpt lat="43.30457" lon="2.23175">
        <ele>232.38</ele>
        <time>2019-11-17T08:42:01Z</time>
      </trkpt>
      <trkpt lat="43.30458" lon="2.23203">
        <ele>234.34</ele>
        <time>2019-11-17T08:42:10Z</time>
      </trkpt>
      <trkpt lat="43.30457" lon="2.23231">
        <ele>235.9</ele>
        <time>2019-11-17T08:42:19Z</time>
      </trkpt>
      <trkpt lat="43.30458" lon="2.23257">
        <ele>237.21</ele>
        <time>2019-11-17T08:42:28Z</time>
      </trkpt>
      <trkpt lat="43.30473" lon="2.23248">
        <ele>239.91</ele>
        <time>2019-11-17T08:42:39Z</time>
      </trkpt>
      <trkpt lat="43.30484" lon="2.23228">
        <ele>242.78</ele>
        <time>2019-11-17T08:42:50Z</time>
      </trkpt>
      <trkpt lat="43.30495" lon="2.23205">
        <ele>244.85</ele>
        <time>2019-11-17T08:43:00Z</time>
      </trkpt>
      <trkpt lat="43.30507" lon="2.23182">
        <ele>246.66</ele>
        <time>2019-11-17T08:43:07Z</time>
      </trkpt>
      <trkpt lat="43.30518" lon="2.23162">
        <ele>249.2</ele>
        <time>2019-11-17T08:43:13Z</time>
      </trkpt>
      <trkpt lat="43.30529" lon="2.23143">
        <ele>252.39</ele>
        <time>2019-11-17T08:43:23Z</time>
      </trkpt>
      <trkpt lat="43.30536" lon="2.23113">
        <ele>255.2</ele>
        <time>2019-11-17T08:43:36Z</time>
      </trkpt>
      <trkpt lat="43.30539" lon="2.23082">
        <ele>256.36</ele>
        <time>2019-11-17T08:43:48Z</time>
      </trkpt>
      <trkpt lat="43.30544" lon="2.23055">
        <ele>257.08</ele>
        <time>2019-11-17T08:44:16Z</time>
      </trkpt>
      <trkpt lat="43.30556" lon="2.2303">
        <ele>258.35</ele>
        <time>2019-11-17T08:45:13Z</time>
      </trkpt>
      <trkpt lat="43.30569" lon="2.23021">
        <ele>261.03</ele>
        <time>2019-11-17T08:45:57Z</time>
      </trkpt>
      <trkpt lat="43.30563" lon="2.23044">
        <ele>261.37</ele>
        <time>2019-11-17T08:46:20Z</time>
      </trkpt>
      <trkpt lat="43.30557" lon="2.23068">
        <ele>261.62</ele>
        <time>2019-11-17T08:46:38Z</time>
      </trkpt>
      <trkpt lat="43.30551" lon="2.23093">
        <ele>261.32</ele>
        <time>2019-11-17T08:46:54Z</time>
      </trkpt>
      <trkpt lat="43.30541" lon="2.23117">
        <ele>258.04</ele>
        <time>2019-11-17T08:47:21Z</time>
      </trkpt>
      <trkpt lat="43.30531" lon="2.23141">
        <ele>254.82</ele>
        <time>2019-11-17T08:47:34Z</time>
      </trkpt>
      <trkpt lat="43.30519" lon="2.23162">
        <ele>252.31</ele>
        <time>2019-11-17T08:47:48Z</time>
      </trkpt>
      <trkpt lat="43.305" lon="2.23187">
        <ele>249.15</ele>
        <time>2019-11-17T08:48:02Z</time>
      </trkpt>
      <trkpt lat="43.30487" lon="2.23212">
        <ele>247.19</ele>
        <time>2019-11-17T08:48:12Z</time>
      </trkpt>
      <trkpt lat="43.30475" lon="2.23237">
        <ele>244.98</ele>
        <time>2019-11-17T08:48:21Z</time>
      </trkpt>
      <trkpt lat="43.30461" lon="2.23257">
        <ele>242.8</ele>
        <time>2019-11-17T08:48:30Z</time>
      </trkpt>
      <trkpt lat="43.30458" lon="2.23235">
        <ele>240.8</ele>
        <time>2019-11-17T08:48:38Z</time>
      </trkpt>
      <trkpt lat="43.3046" lon="2.23209">
        <ele>238.69</ele>
        <time>2019-11-17T08:48:46Z</time>
      </trkpt>
      <trkpt lat="43.3046" lon="2.23183">
        <ele>237.64</ele>
        <time>2019-11-17T08:48:54Z</time>
      </trkpt>
      <trkpt lat="43.30458" lon="2.23156">
        <ele>235.88</ele>
        <time>2019-11-17T08:49:03Z</time>
      </trkpt>
      <trkpt lat="43.30458" lon="2.23128">
        <ele>234.74</ele>
        <time>2019-11-17T08:49:11Z</time>
      </trkpt>
      <trkpt lat="43.30454" lon="2.23111">
        <ele>233.29</ele>
        <time>2019-11-17T08:49:19Z</time>
      </trkpt>
      <trkpt lat="43.30451" lon="2.23136">
        <ele>231.69</ele>
        <time>2019-11-17T08:49:27Z</time>
      </trkpt>
      <trkpt lat="43.30441" lon="2.23149">
        <ele>229.49</ele>
        <time>2019-11-17T08:49:53Z</time>
      </trkpt>
      <trkpt lat="43.30421" lon="2.23145">
        <ele>227.77</ele>
        <time>2019-11-17T08:50:06Z</time>
      </trkpt>
      <trkpt lat="43.30402" lon="2.23145">
        <ele>225.66</ele>
        <time>2019-11-17T08:50:14Z</time>
      </trkpt>
      <trkpt lat="43.30381" lon="2.23144">
        <ele>223.41</ele>
        <time>2019-11-17T08:50:22Z</time>
      </trkpt>
      <trkpt lat="43.30362" lon="2.23145">
        <ele>221.09</ele>
        <time>2019-11-17T08:50:29Z</time>
      </trkpt>
      <trkpt lat="43.30342" lon="2.2315">
        <ele>219.7</ele>
        <time>2019-11-17T08:50:37Z</time>
      </trkpt>
      <trkpt lat="43.30332" lon="2.2317">
        <ele>218.2</ele>
        <time>2019-11-17T08:50:45Z</time>
      </trkpt>
      <trkpt lat="43.30329" lon="2.23196">
        <ele>217.59</ele>
        <time>2019-11-17T08:50:53Z</time>
      </trkpt>
      <trkpt lat="43.30326" lon="2.23221">
        <ele>217.36</ele>
        <time>2019-11-17T08:51:00Z</time>
      </trkpt>
      <trkpt lat="43.30322" lon="2.23247">
        <ele>216.72</ele>
        <time>2019-11-17T08:51:07Z</time>
      </trkpt>
      <trkpt lat="43.30314" lon="2.23273">
        <ele>215.65</ele>
        <time>2019-11-17T08:51:15Z</time>
      </trkpt>
      <trkpt lat="43.30302" lon="2.23293">
        <ele>214.73</ele>
        <time>2019-11-17T08:51:22Z</time>
      </trkpt>
      <trkpt lat="43.30289" lon="2.23314">
        <ele>212.83</ele>
        <time>2019-11-17T08:51:30Z</time>
      </trkpt>
      <trkpt lat="43.3027" lon="2.23306">
        <ele>209.41</ele>
        <time>2019-11-17T08:51:38Z</time>
      </trkpt>
      <trkpt lat="43.30253" lon="2.23296">
        <ele>206.02</ele>
        <time>2019-11-17T08:51:45Z</time>
      </trkpt>
      <trkpt lat="43.30236" lon="2.23285">
        <ele>202.89</ele>
        <time>2019-11-17T08:51:53Z</time>
      </trkpt>
      <trkpt lat="43.30218" lon="2.23272">
        <ele>200.63</ele>
        <time>2019-11-17T08:52:01Z</time>
      </trkpt>
      <trkpt lat="43.30199" lon="2.23259">
        <ele>197.39</ele>
        <time>2019-11-17T08:52:09Z</time>
      </trkpt>
      <trkpt lat="43.30182" lon="2.23248">
        <ele>194.7</ele>
        <time>2019-11-17T08:52:17Z</time>
      </trkpt>
      <trkpt lat="43.30172" lon="2.23224">
        <ele>190.91</ele>
        <time>2019-11-17T08:52:30Z</time>
      </trkpt>
      <trkpt lat="43.3017" lon="2.23199">
        <ele>189.76</ele>
        <time>2019-11-17T08:52:53Z</time>
      </trkpt>
      <trkpt lat="43.3017" lon="2.23171">
        <ele>189.21</ele>
        <time>2019-11-17T08:53:05Z</time>
      </trkpt>
      <trkpt lat="43.30169" lon="2.23139">
        <ele>188.17</ele>
        <time>2019-11-17T08:53:15Z</time>
      </trkpt>
      <trkpt lat="43.3017" lon="2.23105">
        <ele>187.51</ele>
        <time>2019-11-17T08:53:24Z</time>
      </trkpt>
      <trkpt lat="43.30174" lon="2.23077">
        <ele>186.55</ele>
        <time>2019-11-17T08:53:32Z</time>
      </trkpt>
      <trkpt lat="43.30175" lon="2.23048">
        <ele>185.41</ele>
        <time>2019-11-17T08:53:42Z</time>
      </trkpt>
      <trkpt lat="43.30171" lon="2.23021">
        <ele>184.43</ele>
        <time>2019-11-17T08:53:50Z</time>
      </trkpt>
      <trkpt lat="43.30166" lon="2.22994">
        <ele>183.63</ele>
        <time>2019-11-17T08:53:58Z</time>
      </trkpt>
      <trkpt lat="43.3016" lon="2.22966">
        <ele>182.95</ele>
        <time>2019-11-17T08:54:06Z</time>
      </trkpt>
      <trkpt lat="43.30155" lon="2.2294">
        <ele>182.57</ele>
        <time>2019-11-17T08:54:13Z</time>
      </trkpt>
      <trkpt lat="43.30151" lon="2.22913">
        <ele>182.02</ele>
        <time>2019-11-17T08:54:20Z</time>
      </trkpt>
      <trkpt lat="43.30148" lon="2.22886">
        <ele>180.94</ele>
        <time>2019-11-17T08:54:27Z</time>
      </trkpt>
      <trkpt lat="43.30147" lon="2.22858">
        <ele>180.11</ele>
        <time>2019-11-17T08:54:35Z</time>
      </trkpt>
      <trkpt lat="43.30144" lon="2.22829">
        <ele>178.99</ele>
        <time>2019-11-17T08:54:43Z</time>
      </trkpt>
      <trkpt lat="43.30145" lon="2.22801">
        <ele>177.68</ele>
        <time>2019-11-17T08:54:50Z</time>
      </trkpt>
      <trkpt lat="43.30144" lon="2.22771">
        <ele>176.35</ele>
        <time>2019-11-17T08:54:58Z</time>
      </trkpt>
      <trkpt lat="43.30134" lon="2.22748">
        <ele>175.54</ele>
        <time>2019-11-17T08:55:05Z</time>
      </trkpt>
      <trkpt lat="43.30125" lon="2.22722">
        <ele>174.12</ele>
        <time>2019-11-17T08:55:13Z</time>
      </trkpt>
      <trkpt lat="43.3012" lon="2.22697">
        <ele>172.26</ele>
        <time>2019-11-17T08:55:22Z</time>
      </trkpt>
      <trkpt lat="43.30114" lon="2.22671">
        <ele>169.38</ele>
        <time>2019-11-17T08:55:30Z</time>
      </trkpt>
      <trkpt lat="43.30111" lon="2.22644">
        <ele>167</ele>
        <time>2019-11-17T08:55:37Z</time>
      </trkpt>
      <trkpt lat="43.30107" lon="2.22614">
        <ele>165.49</ele>
        <time>2019-11-17T08:55:44Z</time>
      </trkpt>
      <trkpt lat="43.30104" lon="2.22589">
        <ele>163.81</ele>
        <time>2019-11-17T08:55:51Z</time>
      </trkpt>
      <trkpt lat="43.30101" lon="2.2256">
        <ele>162.16</ele>
        <time>2019-11-17T08:55:59Z</time>
      </trkpt>
      <trkpt lat="43.30097" lon="2.22532">
        <ele>161.01</ele>
        <time>2019-11-17T08:56:06Z</time>
      </trkpt>
      <trkpt lat="43.30094" lon="2.22503">
        <ele>160.41</ele>
        <time>2019-11-17T08:56:13Z</time>
      </trkpt>
      <trkpt lat="43.30092" lon="2.22476">
        <ele>159.39</ele>
        <time>2019-11-17T08:56:20Z</time>
      </trkpt>
      <trkpt lat="43.3009" lon="2.22448">
        <ele>158.3</ele>
        <time>2019-11-17T08:56:28Z</time>
      </trkpt>
      <trkpt lat="43.30093" lon="2.22418">
        <ele>156.79</ele>
        <time>2019-11-17T08:56:36Z</time>
      </trkpt>
      <trkpt lat="43.30096" lon="2.22392">
        <ele>155.12</ele>
        <time>2019-11-17T08:56:43Z</time>
      </trkpt>
      <trkpt lat="43.30103" lon="2.22364">
        <ele>153.78</ele>
        <time>2019-11-17T08:56:50Z</time>
      </trkpt>
      <trkpt lat="43.30108" lon="2.22334">
        <ele>152.51</ele>
        <time>2019-11-17T08:56:57Z</time>
      </trkpt>
      <trkpt lat="43.30106" lon="2.22308">
        <ele>151.17</ele>
        <time>2019-11-17T08:57:04Z</time>
      </trkpt>
      <trkpt lat="43.30103" lon="2.2228">
        <ele>150.24</ele>
        <time>2019-11-17T08:57:11Z</time>
      </trkpt>
      <trkpt lat="43.301" lon="2.2225">
        <ele>149.38</ele>
        <time>2019-11-17T08:57:18Z</time>
      </trkpt>
      <trkpt lat="43.30096" lon="2.2222">
        <ele>148.54</ele>
        <time>2019-11-17T08:57:25Z</time>
      </trkpt>
      <trkpt lat="43.30095" lon="2.22194">
        <ele>147.86</ele>
        <time>2019-11-17T08:57:31Z</time>
      </trkpt>
      <trkpt lat="43.30097" lon="2.22166">
        <ele>146.96</ele>
        <time>2019-11-17T08:57:38Z</time>
      </trkpt>
      <trkpt lat="43.30091" lon="2.22139">
        <ele>145.11</ele>
        <time>2019-11-17T08:57:46Z</time>
      </trkpt>
      <trkpt lat="43.30089" lon="2.22112">
        <ele>143.03</ele>
        <time>2019-11-17T08:57:55Z</time>
      </trkpt>
      <trkpt lat="43.3009" lon="2.22082">
        <ele>141.84</ele>
        <time>2019-11-17T08:58:04Z</time>
      </trkpt>
      <trkpt lat="43.30094" lon="2.22052">
        <ele>141.29</ele>
        <time>2019-11-17T08:58:13Z</time>
      </trkpt>
      <trkpt lat="43.30096" lon="2.22018">
        <ele>140.37</ele>
        <time>2019-11-17T08:58:22Z</time>
      </trkpt>
      <trkpt lat="43.30094" lon="2.21986">
        <ele>139.82</ele>
        <time>2019-11-17T08:58:31Z</time>
      </trkpt>
      <trkpt lat="43.30075" lon="2.21982">
        <ele>139.34</ele>
        <time>2019-11-17T08:58:38Z</time>
      </trkpt>
      <trkpt lat="43.30057" lon="2.21986">
        <ele>139.07</ele>
        <time>2019-11-17T08:58:45Z</time>
      </trkpt>
      <trkpt lat="43.30039" lon="2.21995">
        <ele>138.68</ele>
        <time>2019-11-17T08:58:52Z</time>
      </trkpt>
      <trkpt lat="43.30023" lon="2.22011">
        <ele>138.51</ele>
        <time>2019-11-17T08:59:01Z</time>
      </trkpt>
      <trkpt lat="43.30009" lon="2.22029">
        <ele>138.42</ele>
        <time>2019-11-17T08:59:09Z</time>
      </trkpt>
      <trkpt lat="43.29991" lon="2.22047">
        <ele>138.31</ele>
        <time>2019-11-17T08:59:17Z</time>
      </trkpt>
      <trkpt lat="43.29973" lon="2.22064">
        <ele>138.06</ele>
        <time>2019-11-17T08:59:25Z</time>
      </trkpt>
      <trkpt lat="43.29955" lon="2.2208">
        <ele>137.95</ele>
        <time>2019-11-17T08:59:34Z</time>
      </trkpt>
      <trkpt lat="43.2994" lon="2.22092">
        <ele>137.71</ele>
        <time>2019-11-17T08:59:45Z</time>
      </trkpt>
      <trkpt lat="43.2992" lon="2.22093">
        <ele>137.93</ele>
        <time>2019-11-17T09:00:01Z</time>
      </trkpt>
      <trkpt lat="43.29896" lon="2.22106">
        <ele>138.09</ele>
        <time>2019-11-17T09:00:11Z</time>
      </trkpt>
      <trkpt lat="43.29873" lon="2.2212">
        <ele>138.47</ele>
        <time>2019-11-17T09:00:19Z</time>
      </trkpt>
      <trkpt lat="43.29852" lon="2.22135">
        <ele>138.58</ele>
        <time>2019-11-17T09:00:27Z</time>
      </trkpt>
      <trkpt lat="43.29833" lon="2.22151">
        <ele>138.83</ele>
        <time>2019-11-17T09:00:35Z</time>
      </trkpt>
      <trkpt lat="43.29816" lon="2.22167">
        <ele>138.93</ele>
        <time>2019-11-17T09:00:42Z</time>
      </trkpt>
      <trkpt lat="43.29801" lon="2.22182">
        <ele>138.98</ele>
        <time>2019-11-17T09:00:48Z</time>
      </trkpt>
      <trkpt lat="43.29783" lon="2.22196">
        <ele>138.97</ele>
        <time>2019-11-17T09:00:55Z</time>
      </trkpt>
      <trkpt lat="43.29765" lon="2.2221">
        <ele>138.92</ele>
        <time>2019-11-17T09:01:02Z</time>
      </trkpt>
      <trkpt lat="43.29749" lon="2.22225">
        <ele>138.74</ele>
        <time>2019-11-17T09:01:09Z</time>
      </trkpt>
      <trkpt lat="43.29733" lon="2.2224">
        <ele>138.51</ele>
        <time>2019-11-17T09:01:17Z</time>
      </trkpt>
      <trkpt lat="43.29716" lon="2.22256">
        <ele>138.35</ele>
        <time>2019-11-17T09:01:25Z</time>
      </trkpt>
      <trkpt lat="43.29696" lon="2.22271">
        <ele>138.38</ele>
        <time>2019-11-17T09:01:33Z</time>
      </trkpt>
      <trkpt lat="43.29678" lon="2.2228">
        <ele>138.17</ele>
        <time>2019-11-17T09:01:40Z</time>
      </trkpt>
      <trkpt lat="43.2966" lon="2.22287">
        <ele>138.47</ele>
        <time>2019-11-17T09:01:47Z</time>
      </trkpt>
      <trkpt lat="43.29641" lon="2.22292">
        <ele>138.52</ele>
        <time>2019-11-17T09:01:55Z</time>
      </trkpt>
      <trkpt lat="43.2962" lon="2.22298">
        <ele>138.48</ele>
        <time>2019-11-17T09:02:04Z</time>
      </trkpt>
      <trkpt lat="43.296" lon="2.2231">
        <ele>139.32</ele>
        <time>2019-11-17T09:02:13Z</time>
      </trkpt>
      <trkpt lat="43.29585" lon="2.22328">
        <ele>140.66</ele>
        <time>2019-11-17T09:02:25Z</time>
      </trkpt>
      <trkpt lat="43.29572" lon="2.22346">
        <ele>141.59</ele>
        <time>2019-11-17T09:02:38Z</time>
      </trkpt>
      <trkpt lat="43.29558" lon="2.22363">
        <ele>142.76</ele>
        <time>2019-11-17T09:02:56Z</time>
      </trkpt>
      <trkpt lat="43.29543" lon="2.22386">
        <ele>143.94</ele>
        <time>2019-11-17T09:03:12Z</time>
      </trkpt>
      <trkpt lat="43.29529" lon="2.22409">
        <ele>145.42</ele>
        <time>2019-11-17T09:03:32Z</time>
      </trkpt>
      <trkpt lat="43.29518" lon="2.22409">
        <ele>147.1</ele>
        <time>2019-11-17T09:04:21Z</time>
      </trkpt>
      <trkpt lat="43.29506" lon="2.22387">
        <ele>148.39</ele>
        <time>2019-11-17T09:04:38Z</time>
      </trkpt>
      <trkpt lat="43.29493" lon="2.22383">
        <ele>150.57</ele>
        <time>2019-11-17T09:04:52Z</time>
      </trkpt>
      <trkpt lat="43.29484" lon="2.22401">
        <ele>152.23</ele>
        <time>2019-11-17T09:05:04Z</time>
      </trkpt>
      <trkpt lat="43.2949" lon="2.22423">
        <ele>153.91</ele>
        <time>2019-11-17T09:05:16Z</time>
      </trkpt>
      <trkpt lat="43.29501" lon="2.22442">
        <ele>156.08</ele>
        <time>2019-11-17T09:05:28Z</time>
      </trkpt>
      <trkpt lat="43.29504" lon="2.22472">
        <ele>157.25</ele>
        <time>2019-11-17T09:05:43Z</time>
      </trkpt>
      <trkpt lat="43.29499" lon="2.22505">
        <ele>162.79</ele>
        <time>2019-11-17T09:05:57Z</time>
      </trkpt>
      <trkpt lat="43.29497" lon="2.22534">
        <ele>170.31</ele>
        <time>2019-11-17T09:06:12Z</time>
      </trkpt>
      <trkpt lat="43.29495" lon="2.22561">
        <ele>176.88</ele>
        <time>2019-11-17T09:06:33Z</time>
      </trkpt>
      <trkpt lat="43.2949" lon="2.22575">
        <ele>178.38</ele>
        <time>2019-11-17T09:07:10Z</time>
      </trkpt>
      <trkpt lat="43.29473" lon="2.22589">
        <ele>190.48</ele>
        <time>2019-11-17T09:07:44Z</time>
      </trkpt>
      <trkpt lat="43.29457" lon="2.226">
        <ele>197.74</ele>
        <time>2019-11-17T09:08:16Z</time>
      </trkpt>
      <trkpt lat="43.29451" lon="2.22621">
        <ele>198.26</ele>
        <time>2019-11-17T09:08:37Z</time>
      </trkpt>
      <trkpt lat="43.29435" lon="2.22639">
        <ele>198.19</ele>
        <time>2019-11-17T09:09:18Z</time>
      </trkpt>
      <trkpt lat="43.29426" lon="2.22661">
        <ele>199.11</ele>
        <time>2019-11-17T09:09:29Z</time>
      </trkpt>
      <trkpt lat="43.29411" lon="2.22653">
        <ele>203.3</ele>
        <time>2019-11-17T09:09:57Z</time>
      </trkpt>
      <trkpt lat="43.29403" lon="2.22629">
        <ele>203.45</ele>
        <time>2019-11-17T09:10:21Z</time>
      </trkpt>
      <trkpt lat="43.29402" lon="2.22602">
        <ele>203.44</ele>
        <time>2019-11-17T09:10:36Z</time>
      </trkpt>
      <trkpt lat="43.29385" lon="2.22589">
        <ele>205.06</ele>
        <time>2019-11-17T09:10:50Z</time>
      </trkpt>
      <trkpt lat="43.29361" lon="2.22591">
        <ele>207.53</ele>
        <time>2019-11-17T09:11:06Z</time>
      </trkpt>
      <trkpt lat="43.29341" lon="2.22601">
        <ele>207.34</ele>
        <time>2019-11-17T09:11:16Z</time>
      </trkpt>
      <trkpt lat="43.2932" lon="2.22614">
        <ele>207.91</ele>
        <time>2019-11-17T09:11:27Z</time>
      </trkpt>
      <trkpt lat="43.29297" lon="2.22622">
        <ele>209.86</ele>
        <time>2019-11-17T09:11:38Z</time>
      </trkpt>
      <trkpt lat="43.29273" lon="2.2263">
        <ele>210.7</ele>
        <time>2019-11-17T09:11:50Z</time>
      </trkpt>
      <trkpt lat="43.29251" lon="2.22634">
        <ele>211.13</ele>
        <time>2019-11-17T09:12:01Z</time>
      </trkpt>
      <trkpt lat="43.29229" lon="2.22642">
        <ele>210.82</ele>
        <time>2019-11-17T09:12:17Z</time>
      </trkpt>
      <trkpt lat="43.29207" lon="2.22649">
        <ele>210.78</ele>
        <time>2019-11-17T09:12:33Z</time>
      </trkpt>
      <trkpt lat="43.29187" lon="2.22657">
        <ele>210.82</ele>
        <time>2019-11-17T09:12:47Z</time>
      </trkpt>
      <trkpt lat="43.29169" lon="2.22665">
        <ele>210.59</ele>
        <time>2019-11-17T09:13:04Z</time>
      </trkpt>
      <trkpt lat="43.29149" lon="2.22674">
        <ele>210.34</ele>
        <time>2019-11-17T09:13:28Z</time>
      </trkpt>
      <trkpt lat="43.29125" lon="2.22669">
        <ele>209.37</ele>
        <time>2019-11-17T09:13:49Z</time>
      </trkpt>
      <trkpt lat="43.29101" lon="2.22669">
        <ele>208.39</ele>
        <time>2019-11-17T09:14:02Z</time>
      </trkpt>
      <trkpt lat="43.29077" lon="2.22658">
        <ele>207.6</ele>
        <time>2019-11-17T09:14:13Z</time>
      </trkpt>
      <trkpt lat="43.29049" lon="2.22649">
        <ele>203.8</ele>
        <time>2019-11-17T09:14:24Z</time>
      </trkpt>
      <trkpt lat="43.29025" lon="2.22645">
        <ele>201.02</ele>
        <time>2019-11-17T09:14:35Z</time>
      </trkpt>
      <trkpt lat="43.28997" lon="2.22645">
        <ele>199.06</ele>
        <time>2019-11-17T09:14:45Z</time>
      </trkpt>
      <trkpt lat="43.28972" lon="2.22644">
        <ele>196.89</ele>
        <time>2019-11-17T09:14:57Z</time>
      </trkpt>
      <trkpt lat="43.28949" lon="2.22649">
        <ele>194.41</ele>
        <time>2019-11-17T09:15:07Z</time>
      </trkpt>
      <trkpt lat="43.2893" lon="2.22668">
        <ele>192.69</ele>
        <time>2019-11-17T09:15:16Z</time>
      </trkpt>
      <trkpt lat="43.28911" lon="2.22685">
        <ele>191.4</ele>
        <time>2019-11-17T09:15:26Z</time>
      </trkpt>
      <trkpt lat="43.28917" lon="2.22702">
        <ele>193.05</ele>
        <time>2019-11-17T09:15:36Z</time>
      </trkpt>
      <trkpt lat="43.28928" lon="2.22723">
        <ele>198.24</ele>
        <time>2019-11-17T09:15:50Z</time>
      </trkpt>
      <trkpt lat="43.28937" lon="2.22748">
        <ele>207.77</ele>
        <time>2019-11-17T09:16:12Z</time>
      </trkpt>
      <trkpt lat="43.28924" lon="2.22768">
        <ele>208.79</ele>
        <time>2019-11-17T09:16:30Z</time>
      </trkpt>
      <trkpt lat="43.28913" lon="2.22793">
        <ele>207.09</ele>
        <time>2019-11-17T09:16:43Z</time>
      </trkpt>
      <trkpt lat="43.28924" lon="2.22808">
        <ele>208.31</ele>
        <time>2019-11-17T09:16:56Z</time>
      </trkpt>
      <trkpt lat="43.28941" lon="2.2282">
        <ele>214.61</ele>
        <time>2019-11-17T09:17:11Z</time>
      </trkpt>
      <trkpt lat="43.2896" lon="2.22831">
        <ele>220.58</ele>
        <time>2019-11-17T09:17:33Z</time>
      </trkpt>
      <trkpt lat="43.28978" lon="2.22838">
        <ele>221.65</ele>
        <time>2019-11-17T09:17:47Z</time>
      </trkpt>
      <trkpt lat="43.28995" lon="2.22846">
        <ele>223.67</ele>
        <time>2019-11-17T09:18:02Z</time>
      </trkpt>
      <trkpt lat="43.28985" lon="2.22867">
        <ele>223.27</ele>
        <time>2019-11-17T09:18:38Z</time>
      </trkpt>
      <trkpt lat="43.28973" lon="2.22889">
        <ele>222.43</ele>
        <time>2019-11-17T09:19:09Z</time>
      </trkpt>
      <trkpt lat="43.28957" lon="2.22899">
        <ele>221.51</ele>
        <time>2019-11-17T09:19:25Z</time>
      </trkpt>
      <trkpt lat="43.28941" lon="2.22914">
        <ele>220.54</ele>
        <time>2019-11-17T09:19:36Z</time>
      </trkpt>
      <trkpt lat="43.28924" lon="2.22928">
        <ele>219.6</ele>
        <time>2019-11-17T09:19:45Z</time>
      </trkpt>
      <trkpt lat="43.28907" lon="2.22945">
        <ele>218.75</ele>
        <time>2019-11-17T09:19:54Z</time>
      </trkpt>
      <trkpt lat="43.28892" lon="2.22964">
        <ele>218.2</ele>
        <time>2019-11-17T09:20:02Z</time>
      </trkpt>
      <trkpt lat="43.28876" lon="2.22981">
        <ele>217.84</ele>
        <time>2019-11-17T09:20:10Z</time>
      </trkpt>
      <trkpt lat="43.28859" lon="2.22996">
        <ele>216.91</ele>
        <time>2019-11-17T09:20:18Z</time>
      </trkpt>
      <trkpt lat="43.28843" lon="2.23008">
        <ele>216.07</ele>
        <time>2019-11-17T09:20:25Z</time>
      </trkpt>
      <trkpt lat="43.28827" lon="2.23019">
        <ele>214.86</ele>
        <time>2019-11-17T09:20:32Z</time>
      </trkpt>
      <trkpt lat="43.2881" lon="2.2303">
        <ele>213.89</ele>
        <time>2019-11-17T09:20:39Z</time>
      </trkpt>
      <trkpt lat="43.28793" lon="2.2304">
        <ele>213.02</ele>
        <time>2019-11-17T09:20:46Z</time>
      </trkpt>
      <trkpt lat="43.28779" lon="2.23058">
        <ele>212.14</ele>
        <time>2019-11-17T09:20:53Z</time>
      </trkpt>
      <trkpt lat="43.28764" lon="2.23072">
        <ele>211.86</ele>
        <time>2019-11-17T09:21:00Z</time>
      </trkpt>
      <trkpt lat="43.28745" lon="2.23084">
        <ele>210.98</ele>
        <time>2019-11-17T09:21:08Z</time>
      </trkpt>
      <trkpt lat="43.28726" lon="2.23093">
        <ele>209.92</ele>
        <time>2019-11-17T09:21:16Z</time>
      </trkpt>
      <trkpt lat="43.28706" lon="2.23095">
        <ele>209.13</ele>
        <time>2019-11-17T09:21:24Z</time>
      </trkpt>
      <trkpt lat="43.28687" lon="2.23088">
        <ele>209.41</ele>
        <time>2019-11-17T09:21:32Z</time>
      </trkpt>
      <trkpt lat="43.28668" lon="2.23078">
        <ele>210.66</ele>
        <time>2019-11-17T09:21:41Z</time>
      </trkpt>
      <trkpt lat="43.28648" lon="2.2308">
        <ele>212.47</ele>
        <time>2019-11-17T09:21:51Z</time>
      </trkpt>
      <trkpt lat="43.28628" lon="2.23073">
        <ele>213</ele>
        <time>2019-11-17T09:22:00Z</time>
      </trkpt>
      <trkpt lat="43.28609" lon="2.2307">
        <ele>213.21</ele>
        <time>2019-11-17T09:22:08Z</time>
      </trkpt>
      <trkpt lat="43.28589" lon="2.23066">
        <ele>213.29</ele>
        <time>2019-11-17T09:22:17Z</time>
      </trkpt>
      <trkpt lat="43.28571" lon="2.23072">
        <ele>213.71</ele>
        <time>2019-11-17T09:22:27Z</time>
      </trkpt>
      <trkpt lat="43.28549" lon="2.2307">
        <ele>213.9</ele>
        <time>2019-11-17T09:22:38Z</time>
      </trkpt>
      <trkpt lat="43.28529" lon="2.23072">
        <ele>214.35</ele>
        <time>2019-11-17T09:22:47Z</time>
      </trkpt>
      <trkpt lat="43.28506" lon="2.23067">
        <ele>214.55</ele>
        <time>2019-11-17T09:23:10Z</time>
      </trkpt>
      <trkpt lat="43.28485" lon="2.23063">
        <ele>214.88</ele>
        <time>2019-11-17T09:23:25Z</time>
      </trkpt>
      <trkpt lat="43.28463" lon="2.23056">
        <ele>213.88</ele>
        <time>2019-11-17T09:23:34Z</time>
      </trkpt>
      <trkpt lat="43.28442" lon="2.23053">
        <ele>212.87</ele>
        <time>2019-11-17T09:23:43Z</time>
      </trkpt>
      <trkpt lat="43.28421" lon="2.23052">
        <ele>212.09</ele>
        <time>2019-11-17T09:23:51Z</time>
      </trkpt>
      <trkpt lat="43.28407" lon="2.23071">
        <ele>211.2</ele>
        <time>2019-11-17T09:23:59Z</time>
      </trkpt>
      <trkpt lat="43.2839" lon="2.23087">
        <ele>210.67</ele>
        <time>2019-11-17T09:24:07Z</time>
      </trkpt>
      <trkpt lat="43.28371" lon="2.23092">
        <ele>209.36</ele>
        <time>2019-11-17T09:24:14Z</time>
      </trkpt>
      <trkpt lat="43.28352" lon="2.23095">
        <ele>208.21</ele>
        <time>2019-11-17T09:24:21Z</time>
      </trkpt>
      <trkpt lat="43.28333" lon="2.23099">
        <ele>206.92</ele>
        <time>2019-11-17T09:24:28Z</time>
      </trkpt>
      <trkpt lat="43.28312" lon="2.23102">
        <ele>205.68</ele>
        <time>2019-11-17T09:24:35Z</time>
      </trkpt>
      <trkpt lat="43.28294" lon="2.23111">
        <ele>204.14</ele>
        <time>2019-11-17T09:24:42Z</time>
      </trkpt>
      <trkpt lat="43.28276" lon="2.23121">
        <ele>202.61</ele>
        <time>2019-11-17T09:24:49Z</time>
      </trkpt>
      <trkpt lat="43.28258" lon="2.23131">
        <ele>201.2</ele>
        <time>2019-11-17T09:24:56Z</time>
      </trkpt>
      <trkpt lat="43.2824" lon="2.23139">
        <ele>199.46</ele>
        <time>2019-11-17T09:25:03Z</time>
      </trkpt>
      <trkpt lat="43.28223" lon="2.2315">
        <ele>198.14</ele>
        <time>2019-11-17T09:25:10Z</time>
      </trkpt>
      <trkpt lat="43.28204" lon="2.23158">
        <ele>196.47</ele>
        <time>2019-11-17T09:25:17Z</time>
      </trkpt>
      <trkpt lat="43.28185" lon="2.23166">
        <ele>194.47</ele>
        <time>2019-11-17T09:25:24Z</time>
      </trkpt>
      <trkpt lat="43.28167" lon="2.23174">
        <ele>192.78</ele>
        <time>2019-11-17T09:25:31Z</time>
      </trkpt>
      <trkpt lat="43.28149" lon="2.23183">
        <ele>190.79</ele>
        <time>2019-11-17T09:25:38Z</time>
      </trkpt>
      <trkpt lat="43.28133" lon="2.23194">
        <ele>189.13</ele>
        <time>2019-11-17T09:25:45Z</time>
      </trkpt>
      <trkpt lat="43.28112" lon="2.23202">
        <ele>187.71</ele>
        <time>2019-11-17T09:25:53Z</time>
      </trkpt>
      <trkpt lat="43.28092" lon="2.232">
        <ele>186.63</ele>
        <time>2019-11-17T09:26:01Z</time>
      </trkpt>
      <trkpt lat="43.28075" lon="2.23187">
        <ele>185.55</ele>
        <time>2019-11-17T09:26:11Z</time>
      </trkpt>
      <trkpt lat="43.28056" lon="2.23185">
        <ele>184.19</ele>
        <time>2019-11-17T09:26:21Z</time>
      </trkpt>
      <trkpt lat="43.28037" lon="2.2319">
        <ele>183.26</ele>
        <time>2019-11-17T09:26:30Z</time>
      </trkpt>
      <trkpt lat="43.28016" lon="2.23188">
        <ele>181.77</ele>
        <time>2019-11-17T09:26:39Z</time>
      </trkpt>
      <trkpt lat="43.28006" lon="2.23164">
        <ele>180.32</ele>
        <time>2019-11-17T09:26:48Z</time>
      </trkpt>
      <trkpt lat="43.27994" lon="2.23145">
        <ele>179.88</ele>
        <time>2019-11-17T09:26:57Z</time>
      </trkpt>
      <trkpt lat="43.27978" lon="2.23148">
        <ele>177.81</ele>
        <time>2019-11-17T09:27:07Z</time>
      </trkpt>
      <trkpt lat="43.27976" lon="2.2317">
        <ele>176.99</ele>
        <time>2019-11-17T09:27:15Z</time>
      </trkpt>
      <trkpt lat="43.27974" lon="2.23192">
        <ele>177.04</ele>
        <time>2019-11-17T09:27:25Z</time>
      </trkpt>
      <trkpt lat="43.27954" lon="2.23204">
        <ele>175.93</ele>
        <time>2019-11-17T09:27:36Z</time>
      </trkpt>
      <trkpt lat="43.27937" lon="2.23193">
        <ele>173.76</ele>
        <time>2019-11-17T09:27:54Z</time>
      </trkpt>
      <trkpt lat="43.27934" lon="2.23191">
        <ele>176.14</ele>
        <time>2019-11-17T09:28:00Z</time>
      </trkpt>
    </trkseg>
  </trk>
</gpx>